<?xml version='1.0' encoding='UTF-8'?><gpx version="1.1" creator="JPX - https://github.com/jenetics/jpx" xmlns="http://www.topografix.com/GPX/1/1"><trk><trkseg><trkpt lat="-27.406629731411687" lon="-52.30623599240036"><ele>455.0</ele><time>2026-03-29T17:59:25.998Z</time></trkpt><trkpt lat="-27.406545330987072" lon="-52.30617309014237"><ele>455.0</ele><time>2026-03-29T18:08:24Z</time></trkpt><trkpt lat="-27.4065965936482" lon="-52.306040806448166"><ele>455.0</ele><time>2026-03-29T18:08:30Z</time></trkpt><trkpt lat="-27.406671030953373" lon="-52.30597894489154"><ele>455.0</ele><time>2026-03-29T18:08:31Z</time></trkpt><trkpt lat="-27.406744886586832" lon="-52.30589630228411"><ele>455.0</ele><time>2026-03-29T18:08:31.999Z</time></trkpt><trkpt lat="-27.40682662755579" lon="-52.30580279621742"><ele>455.0</ele><time>2026-03-29T18:08:32.999Z</time></trkpt><trkpt lat="-27.406911741989816" lon="-52.305706674124146"><ele>455.0</ele><time>2026-03-29T18:08:33.999Z</time></trkpt><trkpt lat="-27.40699028128875" lon="-52.30562014675368"><ele>455.0</ele><time>2026-03-29T18:08:34.999Z</time></trkpt><trkpt lat="-27.407060442093425" lon="-52.30554011550336"><ele>455.0</ele><time>2026-03-29T18:08:35.999Z</time></trkpt><trkpt lat="-27.407139369990464" lon="-52.30545853747638"><ele>455.0</ele><time>2026-03-29T18:08:36.999Z</time></trkpt><trkpt lat="-27.40721881461366" lon="-52.30537541676929"><ele>455.5</ele><time>2026-03-29T18:08:37.999Z</time></trkpt><trkpt lat="-27.407302736894287" lon="-52.305282178638386"><ele>456.0</ele><time>2026-03-29T18:08:38.999Z</time></trkpt><trkpt lat="-27.407404617739882" lon="-52.30517190332698"><ele>456.5</ele><time>2026-03-29T18:08:39.999Z</time></trkpt><trkpt lat="-27.407516013243537" lon="-52.30505585186127"><ele>457.0</ele><time>2026-03-29T18:08:40.999Z</time></trkpt><trkpt lat="-27.407654890123737" lon="-52.30489891926513"><ele>457.33333333333337</ele><time>2026-03-29T18:08:41.999Z</time></trkpt><trkpt lat="-27.40781372943268" lon="-52.30472567716636"><ele>457.66666666666663</ele><time>2026-03-29T18:08:42.999Z</time></trkpt><trkpt lat="-27.407959707708393" lon="-52.30457262105294"><ele>458.0</ele><time>2026-03-29T18:08:43.999Z</time></trkpt><trkpt lat="-27.408098523678134" lon="-52.30443731746577"><ele>458.0</ele><time>2026-03-29T18:08:44.999Z</time></trkpt><trkpt lat="-27.40824486837098" lon="-52.30434019671519"><ele>458.0</ele><time>2026-03-29T18:08:45.999Z</time></trkpt><trkpt lat="-27.408380273334185" lon="-52.30422660688343"><ele>458.0</ele><time>2026-03-29T18:08:46.999Z</time></trkpt><trkpt lat="-27.408530767865955" lon="-52.30417088191208"><ele>458.0</ele><time>2026-03-29T18:08:47.999Z</time></trkpt><trkpt lat="-27.408677440671042" lon="-52.304106439448525"><ele>458.0</ele><time>2026-03-29T18:08:48.999Z</time></trkpt><trkpt lat="-27.40883369484415" lon="-52.3040614899415"><ele>458.0</ele><time>2026-03-29T18:08:49.999Z</time></trkpt><trkpt lat="-27.40899093505527" lon="-52.30402193305648"><ele>458.25</ele><time>2026-03-29T18:08:50.999Z</time></trkpt><trkpt lat="-27.4091385403409" lon="-52.30398810592434"><ele>458.5</ele><time>2026-03-29T18:08:51.999Z</time></trkpt><trkpt lat="-27.409268919922436" lon="-52.30394012922784"><ele>458.75</ele><time>2026-03-29T18:08:52.999Z</time></trkpt><trkpt lat="-27.40939933364027" lon="-52.30392829085331"><ele>459.0</ele><time>2026-03-29T18:08:53.999Z</time></trkpt><trkpt lat="-27.409491623401564" lon="-52.30391424454438"><ele>459.33333333333337</ele><time>2026-03-29T18:08:54.999Z</time></trkpt><trkpt lat="-27.409511382751113" lon="-52.30358716228603"><ele>459.6666666666667</ele><time>2026-03-29T18:08:56.999Z</time></trkpt><trkpt lat="-27.409497907764877" lon="-52.30347119375176"><ele>460.0</ele><time>2026-03-29T18:08:57.999Z</time></trkpt><trkpt lat="-27.40950240537717" lon="-52.30331192578967"><ele>460.0</ele><time>2026-03-29T18:08:58.999Z</time></trkpt><trkpt lat="-27.40950691044363" lon="-52.30311784129609"><ele>460.0</ele><time>2026-03-29T18:08:59.999Z</time></trkpt><trkpt lat="-27.409484188606186" lon="-52.30290178136736"><ele>460.0</ele><time>2026-03-29T18:09:00.999Z</time></trkpt><trkpt lat="-27.409484741132164" lon="-52.302690452876526"><ele>461.6</ele><time>2026-03-29T18:09:01.999Z</time></trkpt><trkpt lat="-27.409482827749375" lon="-52.30254163437627"><ele>463.2</ele><time>2026-03-29T18:09:02.999Z</time></trkpt><trkpt lat="-27.409475291660453" lon="-52.302438350024005"><ele>464.79999999999995</ele><time>2026-03-29T18:09:03.999Z</time></trkpt><trkpt lat="-27.40948864926026" lon="-52.302352572678"><ele>466.4</ele><time>2026-03-29T18:09:05.999Z</time></trkpt><trkpt lat="-27.4094243281741" lon="-52.302331931343346"><ele>468.0</ele><time>2026-03-29T18:09:10.999Z</time></trkpt><trkpt lat="-27.409386780894724" lon="-52.30224849276167"><ele>469.75</ele><time>2026-03-29T18:09:12.999Z</time></trkpt><trkpt lat="-27.409337933444014" lon="-52.30213994261814"><ele>471.5</ele><time>2026-03-29T18:09:14.999Z</time></trkpt><trkpt lat="-27.4093070714662" lon="-52.3020713602844"><ele>473.25</ele><time>2026-03-29T18:09:15.999Z</time></trkpt><trkpt lat="-27.409488383748382" lon="-52.301906932892926"><ele>475.0</ele><time>2026-03-29T18:09:16.999Z</time></trkpt><trkpt lat="-27.40945161592996" lon="-52.301833490874955"><ele>475.0</ele><time>2026-03-29T18:09:18.999Z</time></trkpt><trkpt lat="-27.409517091941623" lon="-52.301753137539606"><ele>475.0</ele><time>2026-03-29T18:09:23.999Z</time></trkpt><trkpt lat="-27.409480849722552" lon="-52.30163604507735"><ele>475.0</ele><time>2026-03-29T18:09:25.999Z</time></trkpt><trkpt lat="-27.409538077149907" lon="-52.301602617158515"><ele>475.0</ele><time>2026-03-29T18:09:28.998Z</time></trkpt><trkpt lat="-27.40957795068992" lon="-52.30148690890282"><ele>475.0</ele><time>2026-03-29T18:09:31.998Z</time></trkpt><trkpt lat="-27.409573117094453" lon="-52.301376919473924"><ele>478.6</ele><time>2026-03-29T18:09:32.998Z</time></trkpt><trkpt lat="-27.409584941969936" lon="-52.30124254296453"><ele>482.2</ele><time>2026-03-29T18:09:33.998Z</time></trkpt><trkpt lat="-27.409578114064736" lon="-52.30109178650273"><ele>485.79999999999995</ele><time>2026-03-29T18:09:34.998Z</time></trkpt><trkpt lat="-27.409581707532897" lon="-52.30098836485861"><ele>489.4</ele><time>2026-03-29T18:09:35.998Z</time></trkpt><trkpt lat="-27.409565439187713" lon="-52.300914975068096"><ele>493.0</ele><time>2026-03-29T18:09:37.998Z</time></trkpt><trkpt lat="-27.409566105151338" lon="-52.30083636044599"><ele>493.00000000000006</ele><time>2026-03-29T18:09:42.998Z</time></trkpt><trkpt lat="-27.40949686062229" lon="-52.300789682432914"><ele>493.0</ele><time>2026-03-29T18:09:45.998Z</time></trkpt><trkpt lat="-27.409443847771715" lon="-52.30074275365132"><ele>493.0</ele><time>2026-03-29T18:09:48.998Z</time></trkpt><trkpt lat="-27.409459620856122" lon="-52.30064962147284"><ele>493.0</ele><time>2026-03-29T18:09:51.998Z</time></trkpt><trkpt lat="-27.409443686099817" lon="-52.300580470662474"><ele>493.00000000000006</ele><time>2026-03-29T18:09:53.998Z</time></trkpt><trkpt lat="-27.409452534876856" lon="-52.300504277306025"><ele>493.0</ele><time>2026-03-29T18:09:59Z</time></trkpt><trkpt lat="-27.409435038709965" lon="-52.300397270797916"><ele>496.83333333333337</ele><time>2026-03-29T18:10:03Z</time></trkpt><trkpt lat="-27.40943357751414" lon="-52.30031592418691"><ele>500.6666666666667</ele><time>2026-03-29T18:10:05Z</time></trkpt><trkpt lat="-27.40943156448939" lon="-52.300226754154124"><ele>504.5</ele><time>2026-03-29T18:10:11Z</time></trkpt><trkpt lat="-27.40944927116925" lon="-52.30012271071422"><ele>508.33333333333337</ele><time>2026-03-29T18:10:17Z</time></trkpt><trkpt lat="-27.409387156287117" lon="-52.300093413392005"><ele>512.1666666666666</ele><time>2026-03-29T18:11:36.998Z</time></trkpt><trkpt lat="-27.409312374911256" lon="-52.300091723105055"><ele>516.0</ele><time>2026-03-29T18:11:38.998Z</time></trkpt><trkpt lat="-27.409225545161508" lon="-52.30011659319661"><ele>516.0</ele><time>2026-03-29T18:11:40.998Z</time></trkpt><trkpt lat="-27.409142783181384" lon="-52.300157521110364"><ele>516.0</ele><time>2026-03-29T18:11:41.998Z</time></trkpt><trkpt lat="-27.40903092950921" lon="-52.300172976466015"><ele>516.0</ele><time>2026-03-29T18:11:43.998Z</time></trkpt><trkpt lat="-27.40895739889067" lon="-52.300190167277655"><ele>516.0</ele><time>2026-03-29T18:11:44.998Z</time></trkpt><trkpt lat="-27.40888469276304" lon="-52.30020976344086"><ele>516.0</ele><time>2026-03-29T18:11:45.998Z</time></trkpt><trkpt lat="-27.408772888389727" lon="-52.30023238625685"><ele>517.3333333333334</ele><time>2026-03-29T18:11:47.998Z</time></trkpt><trkpt lat="-27.408677580968682" lon="-52.300230010193985"><ele>518.6666666666666</ele><time>2026-03-29T18:11:49.998Z</time></trkpt><trkpt lat="-27.408601566344277" lon="-52.30024382272842"><ele>520.0</ele><time>2026-03-29T18:11:51.998Z</time></trkpt><trkpt lat="-27.40853671152175" lon="-52.30023303707304"><ele>521.3333333333333</ele><time>2026-03-29T18:11:56.998Z</time></trkpt><trkpt lat="-27.408515733852894" lon="-52.30013217252252"><ele>522.6666666666666</ele><time>2026-03-29T18:12:03Z</time></trkpt><trkpt lat="-27.408517788055843" lon="-52.3000567844968"><ele>524.0</ele><time>2026-03-29T18:12:04Z</time></trkpt><trkpt lat="-27.40847011418696" lon="-52.300002843686336"><ele>524.0</ele><time>2026-03-29T18:12:09Z</time></trkpt><trkpt lat="-27.40852988927165" lon="-52.29995999757504"><ele>524.0</ele><time>2026-03-29T18:12:27Z</time></trkpt><trkpt lat="-27.408586755903208" lon="-52.29988208067657"><ele>524.0</ele><time>2026-03-29T18:12:29Z</time></trkpt><trkpt lat="-27.408640106950056" lon="-52.29982919786581"><ele>524.0</ele><time>2026-03-29T18:12:30Z</time></trkpt><trkpt lat="-27.408744741261643" lon="-52.29977274787976"><ele>524.0</ele><time>2026-03-29T18:12:32Z</time></trkpt><trkpt lat="-27.408828459600436" lon="-52.299711462497896"><ele>524.0</ele><time>2026-03-29T18:12:34Z</time></trkpt><trkpt lat="-27.40886123060204" lon="-52.29964034816113"><ele>523.4</ele><time>2026-03-29T18:12:36Z</time></trkpt><trkpt lat="-27.408839824419317" lon="-52.29956064665524"><ele>522.8</ele><time>2026-03-29T18:12:37.999Z</time></trkpt><trkpt lat="-27.408857393536113" lon="-52.29948712627217"><ele>522.2</ele><time>2026-03-29T18:12:40.999Z</time></trkpt><trkpt lat="-27.408919965147017" lon="-52.299421119587834"><ele>521.6</ele><time>2026-03-29T18:12:43.999Z</time></trkpt><trkpt lat="-27.409028319565174" lon="-52.299454611535005"><ele>521.0</ele><time>2026-03-29T18:12:46.999Z</time></trkpt><trkpt lat="-27.409152203594495" lon="-52.29945065321482"><ele>521.0</ele><time>2026-03-29T18:12:48.999Z</time></trkpt><trkpt lat="-27.409255106718984" lon="-52.29946157578128"><ele>521.0</ele><time>2026-03-29T18:12:51.999Z</time></trkpt><trkpt lat="-27.40938701796217" lon="-52.29946602090009"><ele>521.0</ele><time>2026-03-29T18:12:53.999Z</time></trkpt><trkpt lat="-27.40946031760847" lon="-52.299443769634344"><ele>521.0</ele><time>2026-03-29T18:12:56.999Z</time></trkpt><trkpt lat="-27.40948806066285" lon="-52.29935343404122"><ele>521.0</ele><time>2026-03-29T18:12:59.999Z</time></trkpt><trkpt lat="-27.409477324850172" lon="-52.29927204269973"><ele>521.0</ele><time>2026-03-29T18:13:03.999Z</time></trkpt><trkpt lat="-27.409471174865125" lon="-52.29919251635313"><ele>521.0</ele><time>2026-03-29T18:13:08.999Z</time></trkpt><trkpt lat="-27.409531672547914" lon="-52.29913380313544"><ele>521.0</ele><time>2026-03-29T18:13:13.999Z</time></trkpt><trkpt lat="-27.40955986189901" lon="-52.299060878460075"><ele>521.0</ele><time>2026-03-29T18:13:16.999Z</time></trkpt><trkpt lat="-27.409649703962977" lon="-52.299076149590476"><ele>521.0</ele><time>2026-03-29T18:13:19.999Z</time></trkpt><trkpt lat="-27.409677511857332" lon="-52.29914228043584"><ele>521.0</ele><time>2026-03-29T18:13:27.999Z</time></trkpt><trkpt lat="-27.409677316460375" lon="-52.29921714508533"><ele>521.0</ele><time>2026-03-29T18:13:31.999Z</time></trkpt><trkpt lat="-27.40971477135602" lon="-52.299307988255755"><ele>520.4</ele><time>2026-03-29T18:13:37.998Z</time></trkpt><trkpt lat="-27.409784406106105" lon="-52.29932173200552"><ele>519.8</ele><time>2026-03-29T18:13:38.998Z</time></trkpt><trkpt lat="-27.409893218544962" lon="-52.299365657030556"><ele>519.1999999999999</ele><time>2026-03-29T18:13:40.998Z</time></trkpt><trkpt lat="-27.410043067023334" lon="-52.29935635190797"><ele>518.6</ele><time>2026-03-29T18:14:46.999Z</time></trkpt><trkpt lat="-27.410127089436827" lon="-52.29935963609121"><ele>518.0</ele><time>2026-03-29T18:14:47.999Z</time></trkpt><trkpt lat="-27.410219054178725" lon="-52.2993544365086"><ele>518.0</ele><time>2026-03-29T18:14:48.999Z</time></trkpt><trkpt lat="-27.410320212991664" lon="-52.29934959927209"><ele>518.0</ele><time>2026-03-29T18:14:49.999Z</time></trkpt><trkpt lat="-27.410433641724268" lon="-52.29935503612057"><ele>518.0</ele><time>2026-03-29T18:14:50.999Z</time></trkpt><trkpt lat="-27.41056891092185" lon="-52.29935687568321"><ele>518.0</ele><time>2026-03-29T18:14:51.999Z</time></trkpt><trkpt lat="-27.410726267646606" lon="-52.29936134534151"><ele>516.6</ele><time>2026-03-29T18:14:52.999Z</time></trkpt><trkpt lat="-27.410856681287832" lon="-52.29937289433002"><ele>515.1999999999999</ele><time>2026-03-29T18:14:53.999Z</time></trkpt><trkpt lat="-27.41096371254118" lon="-52.29937447001823"><ele>513.8</ele><time>2026-03-29T18:14:54.999Z</time></trkpt><trkpt lat="-27.411074970095576" lon="-52.29937269851726"><ele>512.4</ele><time>2026-03-29T18:14:55.999Z</time></trkpt><trkpt lat="-27.41115474604676" lon="-52.29936454549502"><ele>511.0</ele><time>2026-03-29T18:14:56.999Z</time></trkpt><trkpt lat="-27.411229013043098" lon="-52.29936462538886"><ele>510.6</ele><time>2026-03-29T18:14:57.999Z</time></trkpt><trkpt lat="-27.411341746973335" lon="-52.299370301198365"><ele>510.20000000000005</ele><time>2026-03-29T18:14:59.999Z</time></trkpt><trkpt lat="-27.411479171732807" lon="-52.29941526366477"><ele>509.79999999999995</ele><time>2026-03-29T18:15:01.999Z</time></trkpt><trkpt lat="-27.41154512505929" lon="-52.29945300867166"><ele>509.4</ele><time>2026-03-29T18:15:02.999Z</time></trkpt><trkpt lat="-27.411617900340794" lon="-52.29940374003527"><ele>509.0</ele><time>2026-03-29T18:15:09.999Z</time></trkpt><trkpt lat="-27.411693591554435" lon="-52.29940889663992"><ele>508.99999999999994</ele><time>2026-03-29T18:15:12.999Z</time></trkpt><trkpt lat="-27.41177293296113" lon="-52.299443301385885"><ele>509.0</ele><time>2026-03-29T18:15:14.999Z</time></trkpt><trkpt lat="-27.41183229566695" lon="-52.299466924209675"><ele>509.0</ele><time>2026-03-29T18:15:16.999Z</time></trkpt><trkpt lat="-27.41191373075415" lon="-52.299440338093696"><ele>509.0</ele><time>2026-03-29T18:15:19.999Z</time></trkpt><trkpt lat="-27.411979869293702" lon="-52.299389844511715"><ele>508.99999999999994</ele><time>2026-03-29T18:15:22.999Z</time></trkpt><trkpt lat="-27.41201828008691" lon="-52.29933099166865"><ele>509.0</ele><time>2026-03-29T18:15:25.999Z</time></trkpt><trkpt lat="-27.41205052249232" lon="-52.2992450660056"><ele>508.99999999999994</ele><time>2026-03-29T18:15:28.999Z</time></trkpt><trkpt lat="-27.412028958480118" lon="-52.29916518030771"><ele>509.0</ele><time>2026-03-29T18:15:31.999Z</time></trkpt><trkpt lat="-27.412004805858164" lon="-52.29908126967153"><ele>509.0</ele><time>2026-03-29T18:15:34.999Z</time></trkpt><trkpt lat="-27.412016046674513" lon="-52.29901022014881"><ele>509.0</ele><time>2026-03-29T18:15:36.998Z</time></trkpt><trkpt lat="-27.412077327784342" lon="-52.298926670498794"><ele>508.99999999999994</ele><time>2026-03-29T18:15:39.998Z</time></trkpt><trkpt lat="-27.41216104688453" lon="-52.298900416428694"><ele>509.0</ele><time>2026-03-29T18:15:42.998Z</time></trkpt><trkpt lat="-27.412227646019424" lon="-52.29887512398559"><ele>506.0</ele><time>2026-03-29T18:15:45.998Z</time></trkpt><trkpt lat="-27.412303822986747" lon="-52.29884055339205"><ele>503.0</ele><time>2026-03-29T18:15:48.998Z</time></trkpt><trkpt lat="-27.412365947521977" lon="-52.29876385022083"><ele>500.0</ele><time>2026-03-29T18:15:51.998Z</time></trkpt><trkpt lat="-27.41239989069282" lon="-52.298675743624074"><ele>497.0</ele><time>2026-03-29T18:15:54.998Z</time></trkpt><trkpt lat="-27.412458436537307" lon="-52.29857348686039"><ele>494.0</ele><time>2026-03-29T18:15:56.998Z</time></trkpt><trkpt lat="-27.412482519882328" lon="-52.298482508887766"><ele>493.99999999999994</ele><time>2026-03-29T18:15:58.998Z</time></trkpt><trkpt lat="-27.41250246164557" lon="-52.29840502759798"><ele>494.0</ele><time>2026-03-29T18:16:00.998Z</time></trkpt><trkpt lat="-27.41250919889094" lon="-52.29830688809137"><ele>494.0</ele><time>2026-03-29T18:16:03.998Z</time></trkpt><trkpt lat="-27.41256414513962" lon="-52.29827211944106"><ele>494.0</ele><time>2026-03-29T18:16:06.998Z</time></trkpt><trkpt lat="-27.412602315990036" lon="-52.29816656800309"><ele>493.99999999999994</ele><time>2026-03-29T18:16:09.998Z</time></trkpt><trkpt lat="-27.412673545047088" lon="-52.29811432307008"><ele>494.0</ele><time>2026-03-29T18:16:11.998Z</time></trkpt><trkpt lat="-27.41271023381595" lon="-52.2980304346522"><ele>495.49999999999994</ele><time>2026-03-29T18:16:16Z</time></trkpt><trkpt lat="-27.412765301823452" lon="-52.297963659386866"><ele>497.0</ele><time>2026-03-29T18:16:18Z</time></trkpt><trkpt lat="-27.412791258318457" lon="-52.29787503879782"><ele>498.5</ele><time>2026-03-29T18:16:21Z</time></trkpt><trkpt lat="-27.412847560948475" lon="-52.29779572079946"><ele>500.0</ele><time>2026-03-29T18:16:25Z</time></trkpt><trkpt lat="-27.41291271296909" lon="-52.29774831200191"><ele>501.49999999999994</ele><time>2026-03-29T18:16:28Z</time></trkpt><trkpt lat="-27.412995685320183" lon="-52.2977638196436"><ele>503.0</ele><time>2026-03-29T18:16:30Z</time></trkpt><trkpt lat="-27.413084488540434" lon="-52.297779399694484"><ele>503.0</ele><time>2026-03-29T18:16:32Z</time></trkpt><trkpt lat="-27.413155192822533" lon="-52.29784615051693"><ele>502.99999999999994</ele><time>2026-03-29T18:16:35Z</time></trkpt><trkpt lat="-27.41322462420256" lon="-52.297860133475346"><ele>502.99999999999994</ele><time>2026-03-29T18:16:37Z</time></trkpt><trkpt lat="-27.413351795899207" lon="-52.29786543942318"><ele>503.0</ele><time>2026-03-29T18:16:39Z</time></trkpt><trkpt lat="-27.413433365015592" lon="-52.29789227446094"><ele>503.0</ele><time>2026-03-29T18:16:40Z</time></trkpt><trkpt lat="-27.413532219929092" lon="-52.29791015861801"><ele>502.99999999999994</ele><time>2026-03-29T18:16:41Z</time></trkpt><trkpt lat="-27.41362795365694" lon="-52.29790467925365"><ele>503.0</ele><time>2026-03-29T18:16:42Z</time></trkpt><trkpt lat="-27.41370621918437" lon="-52.29790970351275"><ele>503.0</ele><time>2026-03-29T18:16:43Z</time></trkpt><trkpt lat="-27.413782505354128" lon="-52.297905767453344"><ele>503.0</ele><time>2026-03-29T18:16:44Z</time></trkpt><trkpt lat="-27.413845901625027" lon="-52.297902926888725"><ele>502.99999999999994</ele><time>2026-03-29T18:16:45Z</time></trkpt><trkpt lat="-27.413915062347076" lon="-52.297877709782775"><ele>503.0</ele><time>2026-03-29T18:16:46.999Z</time></trkpt><trkpt lat="-27.41398021013257" lon="-52.29782824955945"><ele>506.49999999999994</ele><time>2026-03-29T18:16:48.999Z</time></trkpt><trkpt lat="-27.414070450714874" lon="-52.29780204405685"><ele>510.0</ele><time>2026-03-29T18:18:20Z</time></trkpt><trkpt lat="-27.41418526230187" lon="-52.29778361305745"><ele>513.5</ele><time>2026-03-29T18:18:22Z</time></trkpt><trkpt lat="-27.41429475025846" lon="-52.29777949125984"><ele>517.0</ele><time>2026-03-29T18:18:24Z</time></trkpt><trkpt lat="-27.414361518486242" lon="-52.297778421852115"><ele>520.5</ele><time>2026-03-29T18:18:25Z</time></trkpt><trkpt lat="-27.414424531308264" lon="-52.297782437754165"><ele>524.0</ele><time>2026-03-29T18:18:26Z</time></trkpt><trkpt lat="-27.414515590521937" lon="-52.2977857725372"><ele>524.0</ele><time>2026-03-29T18:18:28Z</time></trkpt><trkpt lat="-27.41461787246403" lon="-52.29782585560038"><ele>524.0</ele><time>2026-03-29T18:18:30Z</time></trkpt><trkpt lat="-27.414671768486535" lon="-52.29786781724964"><ele>524.0</ele><time>2026-03-29T18:18:31Z</time></trkpt><trkpt lat="-27.414706875114206" lon="-52.297936722795406"><ele>524.0</ele><time>2026-03-29T18:18:32Z</time></trkpt><trkpt lat="-27.41473360863235" lon="-52.29801730154016"><ele>524.0</ele><time>2026-03-29T18:18:33Z</time></trkpt><trkpt lat="-27.414815466979523" lon="-52.298107086309315"><ele>524.0</ele><time>2026-03-29T18:18:35Z</time></trkpt><trkpt lat="-27.41482542198707" lon="-52.29823405496958"><ele>524.6666666666666</ele><time>2026-03-29T18:18:37Z</time></trkpt><trkpt lat="-27.414812379938123" lon="-52.298306854668866"><ele>525.3333333333333</ele><time>2026-03-29T18:18:38Z</time></trkpt><trkpt lat="-27.414776380743938" lon="-52.2983778744906"><ele>526.0</ele><time>2026-03-29T18:18:39Z</time></trkpt><trkpt lat="-27.41473226873266" lon="-52.29844058146094"><ele>526.6666666666666</ele><time>2026-03-29T18:18:40Z</time></trkpt><trkpt lat="-27.414663398594435" lon="-52.29851227579355"><ele>527.3333333333334</ele><time>2026-03-29T18:18:42Z</time></trkpt><trkpt lat="-27.41453847418077" lon="-52.298554095352785"><ele>528.0</ele><time>2026-03-29T18:18:44Z</time></trkpt><trkpt lat="-27.41446978031046" lon="-52.29858583038076"><ele>528.0</ele><time>2026-03-29T18:18:45Z</time></trkpt><trkpt lat="-27.414376760233452" lon="-52.29862558584098"><ele>528.0</ele><time>2026-03-29T18:18:47Z</time></trkpt><trkpt lat="-27.414299886151934" lon="-52.29866336398899"><ele>528.0</ele><time>2026-03-29T18:18:48Z</time></trkpt><trkpt lat="-27.414230921087864" lon="-52.2986881615485"><ele>528.0</ele><time>2026-03-29T18:18:48.999Z</time></trkpt><trkpt lat="-27.414163382727388" lon="-52.29869857157039"><ele>528.0</ele><time>2026-03-29T18:18:49.999Z</time></trkpt><trkpt lat="-27.41409187258049" lon="-52.29869371568683"><ele>528.0</ele><time>2026-03-29T18:18:50.999Z</time></trkpt><trkpt lat="-27.41403143796612" lon="-52.298718661481885"><ele>528.0</ele><time>2026-03-29T18:18:51.999Z</time></trkpt><trkpt lat="-27.413927020939667" lon="-52.29879337073264"><ele>528.0</ele><time>2026-03-29T18:18:53.999Z</time></trkpt><trkpt lat="-27.413847200832112" lon="-52.2988328346365"><ele>528.0</ele><time>2026-03-29T18:18:55.999Z</time></trkpt><trkpt lat="-27.413803873174935" lon="-52.29888485065931"><ele>528.0</ele><time>2026-03-29T18:19:04.999Z</time></trkpt><trkpt lat="-27.41378294793142" lon="-52.29897846854719"><ele>528.0</ele><time>2026-03-29T18:19:06.999Z</time></trkpt><trkpt lat="-27.413834394728326" lon="-52.29904229120156"><ele>528.0</ele><time>2026-03-29T18:19:08.999Z</time></trkpt><trkpt lat="-27.413911671629357" lon="-52.29908925499768"><ele>528.0</ele><time>2026-03-29T18:19:12.999Z</time></trkpt><trkpt lat="-27.413993354252757" lon="-52.29910320469998"><ele>528.0</ele><time>2026-03-29T18:19:14.999Z</time></trkpt><trkpt lat="-27.414075137618322" lon="-52.29908639237309"><ele>528.0</ele><time>2026-03-29T18:19:17.999Z</time></trkpt><trkpt lat="-27.41414837126508" lon="-52.29907884680989"><ele>528.0</ele><time>2026-03-29T18:19:20.999Z</time></trkpt><trkpt lat="-27.414227334538005" lon="-52.299021652573394"><ele>528.0</ele><time>2026-03-29T18:19:23.999Z</time></trkpt><trkpt lat="-27.414286306171455" lon="-52.29894833937682"><ele>528.0</ele><time>2026-03-29T18:19:26.999Z</time></trkpt><trkpt lat="-27.414307592266457" lon="-52.29887431807988"><ele>528.0</ele><time>2026-03-29T18:19:29.999Z</time></trkpt><trkpt lat="-27.41435504872165" lon="-52.2988163269627"><ele>528.0</ele><time>2026-03-29T18:19:40.999Z</time></trkpt><trkpt lat="-27.414417732468316" lon="-52.29880028762908"><ele>528.0</ele><time>2026-03-29T18:19:46.998Z</time></trkpt><trkpt lat="-27.414491986944338" lon="-52.29880825675766"><ele>528.0</ele><time>2026-03-29T18:19:50.998Z</time></trkpt><trkpt lat="-27.414549662355377" lon="-52.29888182605355"><ele>528.0</ele><time>2026-03-29T18:20:10.998Z</time></trkpt><trkpt lat="-27.414585035139" lon="-52.29894659776392"><ele>528.0</ele><time>2026-03-29T18:20:15.998Z</time></trkpt><trkpt lat="-27.414614494103166" lon="-52.29901440405544"><ele>528.0</ele><time>2026-03-29T18:20:24Z</time></trkpt><trkpt lat="-27.414644070478314" lon="-52.29907964804555"><ele>531.0</ele><time>2026-03-29T18:20:34Z</time></trkpt><trkpt lat="-27.414690621635625" lon="-52.29913132566811"><ele>534.0</ele><time>2026-03-29T18:21:51.998Z</time></trkpt><trkpt lat="-27.414726635105747" lon="-52.2990644948972"><ele>537.0</ele><time>2026-03-29T18:23:13.999Z</time></trkpt><trkpt lat="-27.4147468846998" lon="-52.29897863362909"><ele>540.0</ele><time>2026-03-29T18:23:16.999Z</time></trkpt><trkpt lat="-27.414730148181818" lon="-52.2989063891408"><ele>543.0</ele><time>2026-03-29T18:23:19.999Z</time></trkpt><trkpt lat="-27.41465795503573" lon="-52.29885091463229"><ele>546.0</ele><time>2026-03-29T18:23:40.999Z</time></trkpt><trkpt lat="-27.41467587503872" lon="-52.29876580427518"><ele>549.0</ele><time>2026-03-29T18:23:43.999Z</time></trkpt><trkpt lat="-27.41469327595582" lon="-52.29869315369362"><ele>549.0</ele><time>2026-03-29T18:23:45.999Z</time></trkpt><trkpt lat="-27.414724125157747" lon="-52.29863074081346"><ele>549.0</ele><time>2026-03-29T18:23:47.999Z</time></trkpt><trkpt lat="-27.414781341312164" lon="-52.29854578624568"><ele>549.0</ele><time>2026-03-29T18:23:49.999Z</time></trkpt><trkpt lat="-27.4148207986292" lon="-52.298471875198956"><ele>549.0</ele><time>2026-03-29T18:23:53.998Z</time></trkpt><trkpt lat="-27.414864376101775" lon="-52.29841763015579"><ele>549.0</ele><time>2026-03-29T18:23:56.998Z</time></trkpt><trkpt lat="-27.414872570142766" lon="-52.29833277040879"><ele>549.0</ele><time>2026-03-29T18:24:01.998Z</time></trkpt><trkpt lat="-27.414867463586646" lon="-52.2982571920457"><ele>549.0</ele><time>2026-03-29T18:24:06.998Z</time></trkpt><trkpt lat="-27.414860391227972" lon="-52.29817752161597"><ele>549.0</ele><time>2026-03-29T18:24:11.998Z</time></trkpt><trkpt lat="-27.414931947084078" lon="-52.29810795822935"><ele>549.0</ele><time>2026-03-29T18:24:26.998Z</time></trkpt><trkpt lat="-27.414999921156074" lon="-52.29809640405925"><ele>549.0</ele><time>2026-03-29T18:24:27.998Z</time></trkpt><trkpt lat="-27.415083497030693" lon="-52.29807895562292"><ele>549.0</ele><time>2026-03-29T18:24:29.998Z</time></trkpt><trkpt lat="-27.41514741743221" lon="-52.29803324750333"><ele>549.0</ele><time>2026-03-29T18:24:32.998Z</time></trkpt><trkpt lat="-27.415240699260366" lon="-52.29803766934321"><ele>549.0</ele><time>2026-03-29T18:24:37Z</time></trkpt><trkpt lat="-27.41530532261963" lon="-52.29804596875032"><ele>547.6666666666666</ele><time>2026-03-29T18:24:41Z</time></trkpt><trkpt lat="-27.41535093877449" lon="-52.297996341294784"><ele>546.3333333333334</ele><time>2026-03-29T18:25:01Z</time></trkpt><trkpt lat="-27.415315473246576" lon="-52.29806354140082"><ele>545.0</ele><time>2026-03-29T18:26:12.998Z</time></trkpt><trkpt lat="-27.41534735222469" lon="-52.297961012869656"><ele>543.6666666666667</ele><time>2026-03-29T18:27:20.999Z</time></trkpt><trkpt lat="-27.41531034084287" lon="-52.298057137007795"><ele>542.3333333333334</ele><time>2026-03-29T18:27:46.999Z</time></trkpt><trkpt lat="-27.415338893929846" lon="-52.29799347094452"><ele>541.0</ele><time>2026-03-29T18:30:58.997Z</time></trkpt><trkpt lat="-27.415223642203483" lon="-52.29799605850217"><ele>541.0000000000001</ele><time>2026-03-29T18:31:01.997Z</time></trkpt><trkpt lat="-27.415298596431857" lon="-52.297993321303935"><ele>541.0</ele><time>2026-03-29T18:31:02.997Z</time></trkpt><trkpt lat="-27.415314124266033" lon="-52.29791793198992"><ele>541.0</ele><time>2026-03-29T18:31:06.997Z</time></trkpt><trkpt lat="-27.415302905469346" lon="-52.29800360003144"><ele>541.0</ele><time>2026-03-29T18:32:12.997Z</time></trkpt><trkpt lat="-27.415359480047847" lon="-52.297972447416925"><ele>541.0</ele><time>2026-03-29T18:37:54Z</time></trkpt><trkpt lat="-27.415390623601898" lon="-52.297907067177356"><ele>541.0000000000001</ele><time>2026-03-29T18:38:01Z</time></trkpt><trkpt lat="-27.415459591949585" lon="-52.29787299664716"><ele>541.0</ele><time>2026-03-29T18:38:05Z</time></trkpt><trkpt lat="-27.41552349523125" lon="-52.297831233487685"><ele>543.5</ele><time>2026-03-29T18:38:06Z</time></trkpt><trkpt lat="-27.41559399267385" lon="-52.29780490596222"><ele>546.0</ele><time>2026-03-29T18:38:07Z</time></trkpt><trkpt lat="-27.41566582250493" lon="-52.29778890838156"><ele>548.5</ele><time>2026-03-29T18:38:08Z</time></trkpt><trkpt lat="-27.415732130851985" lon="-52.297788778736646"><ele>551.0</ele><time>2026-03-29T18:38:09Z</time></trkpt><trkpt lat="-27.415800372103302" lon="-52.297783426868264"><ele>553.5</ele><time>2026-03-29T18:38:11Z</time></trkpt><trkpt lat="-27.41587974501029" lon="-52.29779541803935"><ele>556.0</ele><time>2026-03-29T18:38:13Z</time></trkpt><trkpt lat="-27.415906372933684" lon="-52.29791824070827"><ele>556.0</ele><time>2026-03-29T18:38:15Z</time></trkpt><trkpt lat="-27.41589697986425" lon="-52.29803973035335"><ele>556.0</ele><time>2026-03-29T18:38:16Z</time></trkpt><trkpt lat="-27.415885443583818" lon="-52.2982096769563"><ele>556.0</ele><time>2026-03-29T18:38:17Z</time></trkpt><trkpt lat="-27.415879303824624" lon="-52.29840896444871"><ele>556.0</ele><time>2026-03-29T18:38:18Z</time></trkpt><trkpt lat="-27.415888939040272" lon="-52.29853566588442"><ele>557.25</ele><time>2026-03-29T18:38:19Z</time></trkpt><trkpt lat="-27.415896979108386" lon="-52.29873471292816"><ele>558.5</ele><time>2026-03-29T18:38:20Z</time></trkpt><trkpt lat="-27.415895891171033" lon="-52.29888659514896"><ele>559.75</ele><time>2026-03-29T18:38:21Z</time></trkpt><trkpt lat="-27.41589929750833" lon="-52.29903461054087"><ele>561.0</ele><time>2026-03-29T18:38:22Z</time></trkpt><trkpt lat="-27.415902378424867" lon="-52.29916389299756"><ele>561.25</ele><time>2026-03-29T18:38:23Z</time></trkpt><trkpt lat="-27.415907010664533" lon="-52.299310134525726"><ele>561.5</ele><time>2026-03-29T18:38:24Z</time></trkpt><trkpt lat="-27.41590712659245" lon="-52.29944640203528"><ele>561.75</ele><time>2026-03-29T18:38:25Z</time></trkpt><trkpt lat="-27.415909705762083" lon="-52.299577853140676"><ele>562.0</ele><time>2026-03-29T18:38:26Z</time></trkpt><trkpt lat="-27.415914030346244" lon="-52.2997391456055"><ele>561.4</ele><time>2026-03-29T18:38:27Z</time></trkpt><trkpt lat="-27.415914001281596" lon="-52.299864349737014"><ele>560.8000000000001</ele><time>2026-03-29T18:38:28Z</time></trkpt><trkpt lat="-27.415917112479068" lon="-52.29997851163324"><ele>560.2</ele><time>2026-03-29T18:38:29Z</time></trkpt><trkpt lat="-27.41592041739198" lon="-52.300082434622354"><ele>559.6</ele><time>2026-03-29T18:38:30Z</time></trkpt><trkpt lat="-27.415923287260007" lon="-52.30016780294096"><ele>559.0</ele><time>2026-03-29T18:38:31Z</time></trkpt><trkpt lat="-27.415923359280406" lon="-52.30024842459671"><ele>559.0</ele><time>2026-03-29T18:38:32Z</time></trkpt><trkpt lat="-27.41592761671121" lon="-52.3003774800899"><ele>559.0</ele><time>2026-03-29T18:38:34Z</time></trkpt><trkpt lat="-27.415921136415307" lon="-52.30049542850629"><ele>559.0</ele><time>2026-03-29T18:38:36Z</time></trkpt><trkpt lat="-27.41585120350527" lon="-52.300591983386376"><ele>559.0</ele><time>2026-03-29T18:38:38Z</time></trkpt><trkpt lat="-27.41578824744934" lon="-52.30064901264399"><ele>559.0</ele><time>2026-03-29T18:38:39Z</time></trkpt><trkpt lat="-27.41570413452365" lon="-52.30069445631386"><ele>558.2</ele><time>2026-03-29T18:38:40Z</time></trkpt><trkpt lat="-27.415630576342824" lon="-52.300734844196874"><ele>557.4</ele><time>2026-03-29T18:38:41Z</time></trkpt><trkpt lat="-27.41555466258225" lon="-52.300774840918805"><ele>556.6</ele><time>2026-03-29T18:38:42Z</time></trkpt><trkpt lat="-27.41542682816851" lon="-52.30082220033749"><ele>555.8</ele><time>2026-03-29T18:38:44Z</time></trkpt><trkpt lat="-27.41535183582785" lon="-52.300839164542914"><ele>555.0</ele><time>2026-03-29T18:38:45Z</time></trkpt><trkpt lat="-27.415267406890507" lon="-52.30084143913818"><ele>554.5</ele><time>2026-03-29T18:38:46Z</time></trkpt><trkpt lat="-27.415187836523693" lon="-52.30084063479389"><ele>554.0</ele><time>2026-03-29T18:38:47Z</time></trkpt><trkpt lat="-27.41511393146952" lon="-52.30082885302912"><ele>553.5</ele><time>2026-03-29T18:38:48Z</time></trkpt><trkpt lat="-27.41502542053416" lon="-52.300802908708306"><ele>553.0</ele><time>2026-03-29T18:38:49Z</time></trkpt><trkpt lat="-27.414964224796506" lon="-52.30083410266929"><ele>552.5</ele><time>2026-03-29T18:38:51Z</time></trkpt><trkpt lat="-27.415009705019603" lon="-52.30094411663264"><ele>552.0</ele><time>2026-03-29T18:38:53Z</time></trkpt><trkpt lat="-27.415095906335583" lon="-52.30102459962783"><ele>552.0</ele><time>2026-03-29T18:38:55Z</time></trkpt><trkpt lat="-27.415145154905954" lon="-52.30107942736398"><ele>552.0</ele><time>2026-03-29T18:38:56Z</time></trkpt><trkpt lat="-27.41518623171997" lon="-52.30114080220128"><ele>552.0</ele><time>2026-03-29T18:38:57Z</time></trkpt><trkpt lat="-27.41521390461022" lon="-52.30121909801359"><ele>552.0</ele><time>2026-03-29T18:38:59Z</time></trkpt><trkpt lat="-27.415299333762494" lon="-52.30122609295877"><ele>552.0</ele><time>2026-03-29T18:39:02Z</time></trkpt><trkpt lat="-27.41539632759869" lon="-52.301183265524315"><ele>552.0</ele><time>2026-03-29T18:39:05Z</time></trkpt><trkpt lat="-27.415444421749957" lon="-52.3012386519065"><ele>552.6</ele><time>2026-03-29T18:39:08Z</time></trkpt><trkpt lat="-27.41552214833364" lon="-52.30128880461995"><ele>553.2</ele><time>2026-03-29T18:39:10Z</time></trkpt><trkpt lat="-27.415586198122785" lon="-52.30134895281223"><ele>553.8</ele><time>2026-03-29T18:39:12Z</time></trkpt><trkpt lat="-27.415650869772094" lon="-52.30144404502711"><ele>554.4</ele><time>2026-03-29T18:39:14Z</time></trkpt><trkpt lat="-27.41569010102472" lon="-52.30156882311246"><ele>555.0</ele><time>2026-03-29T18:39:16.001Z</time></trkpt><trkpt lat="-27.41572474096745" lon="-52.301654331950175"><ele>551.1666666666666</ele><time>2026-03-29T18:39:18.001Z</time></trkpt><trkpt lat="-27.415710615168827" lon="-52.301728455752766"><ele>547.3333333333334</ele><time>2026-03-29T18:39:20.001Z</time></trkpt><trkpt lat="-27.415698090036013" lon="-52.30182962036302"><ele>543.5</ele><time>2026-03-29T18:39:22.001Z</time></trkpt><trkpt lat="-27.41571783708849" lon="-52.30190028941528"><ele>539.6666666666667</ele><time>2026-03-29T18:39:24.001Z</time></trkpt><trkpt lat="-27.41581470780604" lon="-52.301938989338325"><ele>535.8333333333334</ele><time>2026-03-29T18:39:27.001Z</time></trkpt><trkpt lat="-27.415863960278905" lon="-52.30199419750846"><ele>532.0</ele><time>2026-03-29T18:39:29.001Z</time></trkpt><trkpt lat="-27.415955221907694" lon="-52.30198965985876"><ele>532.0</ele><time>2026-03-29T18:39:31.001Z</time></trkpt><trkpt lat="-27.41602263497854" lon="-52.301964126523245"><ele>532.0</ele><time>2026-03-29T18:39:34.001Z</time></trkpt><trkpt lat="-27.41610468832181" lon="-52.3019789613053"><ele>532.0</ele><time>2026-03-29T18:39:38.001Z</time></trkpt><trkpt lat="-27.416171723039334" lon="-52.301991698091925"><ele>532.0</ele><time>2026-03-29T18:39:41.001Z</time></trkpt><trkpt lat="-27.41624478250835" lon="-52.30196388111967"><ele>532.0</ele><time>2026-03-29T18:39:44.001Z</time></trkpt><trkpt lat="-27.416322458848768" lon="-52.301891916369605"><ele>532.0</ele><time>2026-03-29T18:39:46.001Z</time></trkpt><trkpt lat="-27.416413808317728" lon="-52.30183493777059"><ele>530.5</ele><time>2026-03-29T18:39:49.001Z</time></trkpt><trkpt lat="-27.41649394995597" lon="-52.30178573161271"><ele>529.0</ele><time>2026-03-29T18:39:50.001Z</time></trkpt><trkpt lat="-27.416569918605774" lon="-52.3017531443608"><ele>527.5</ele><time>2026-03-29T18:39:52.001Z</time></trkpt><trkpt lat="-27.416657770711673" lon="-52.301702368696084"><ele>526.0</ele><time>2026-03-29T18:39:54.001Z</time></trkpt><trkpt lat="-27.41672977199588" lon="-52.30163514003776"><ele>524.5</ele><time>2026-03-29T18:39:56.001Z</time></trkpt><trkpt lat="-27.416795036547082" lon="-52.30160872864747"><ele>523.0</ele><time>2026-03-29T18:39:58Z</time></trkpt><trkpt lat="-27.416874781615387" lon="-52.30159745156529"><ele>523.0</ele><time>2026-03-29T18:40:00Z</time></trkpt><trkpt lat="-27.416974339648675" lon="-52.30160168936719"><ele>523.0</ele><time>2026-03-29T18:40:02Z</time></trkpt><trkpt lat="-27.41704519694772" lon="-52.301598279961176"><ele>523.0</ele><time>2026-03-29T18:40:04Z</time></trkpt><trkpt lat="-27.417134274941322" lon="-52.3015612037539"><ele>523.0</ele><time>2026-03-29T18:40:06Z</time></trkpt><trkpt lat="-27.4171994924143" lon="-52.30156772540472"><ele>523.0</ele><time>2026-03-29T18:40:08Z</time></trkpt><trkpt lat="-27.417278899433416" lon="-52.30153305364688"><ele>523.0</ele><time>2026-03-29T18:40:11Z</time></trkpt><trkpt lat="-27.417351104664863" lon="-52.301480807820276"><ele>522.8571428571428</ele><time>2026-03-29T18:40:14Z</time></trkpt><trkpt lat="-27.417402572897114" lon="-52.30142212991708"><ele>522.7142857142857</ele><time>2026-03-29T18:40:18Z</time></trkpt><trkpt lat="-27.417459424125298" lon="-52.30139058945204"><ele>522.5714285714286</ele><time>2026-03-29T18:40:23Z</time></trkpt><trkpt lat="-27.417520418951234" lon="-52.301414658126134"><ele>522.4285714285713</ele><time>2026-03-29T18:40:26Z</time></trkpt><trkpt lat="-27.41760504821028" lon="-52.30144855947653"><ele>522.2857142857142</ele><time>2026-03-29T18:40:29Z</time></trkpt><trkpt lat="-27.41767190740771" lon="-52.301480159247404"><ele>522.1428571428571</ele><time>2026-03-29T18:40:31Z</time></trkpt><trkpt lat="-27.417744914537035" lon="-52.301509639456526"><ele>522.0</ele><time>2026-03-29T18:40:33Z</time></trkpt><trkpt lat="-27.417814237438435" lon="-52.301563300521394"><ele>522.0</ele><time>2026-03-29T18:40:36Z</time></trkpt><trkpt lat="-27.417896651232113" lon="-52.301586438339896"><ele>522.0</ele><time>2026-03-29T18:40:42Z</time></trkpt><trkpt lat="-27.418006898061574" lon="-52.30161573511656"><ele>522.0</ele><time>2026-03-29T18:40:44Z</time></trkpt><trkpt lat="-27.418079086818445" lon="-52.30166463727353"><ele>522.0</ele><time>2026-03-29T18:40:48Z</time></trkpt><trkpt lat="-27.41812351602327" lon="-52.30173089218643"><ele>522.0</ele><time>2026-03-29T18:43:39.002Z</time></trkpt><trkpt lat="-27.41809424101249" lon="-52.301845009316374"><ele>520.8000000000001</ele><time>2026-03-29T18:43:41.002Z</time></trkpt><trkpt lat="-27.418073239877014" lon="-52.30193096425012"><ele>519.6</ele><time>2026-03-29T18:43:42.002Z</time></trkpt><trkpt lat="-27.418078623134697" lon="-52.30205957448998"><ele>518.4000000000001</ele><time>2026-03-29T18:43:44.001Z</time></trkpt><trkpt lat="-27.418133075395982" lon="-52.302204259793776"><ele>517.2</ele><time>2026-03-29T18:43:46.001Z</time></trkpt><trkpt lat="-27.418175748444828" lon="-52.30228693726989"><ele>516.0</ele><time>2026-03-29T18:43:47.001Z</time></trkpt><trkpt lat="-27.41822821145477" lon="-52.30236785402264"><ele>516.0</ele><time>2026-03-29T18:43:48.001Z</time></trkpt><trkpt lat="-27.41828166295364" lon="-52.30243983142305"><ele>516.0</ele><time>2026-03-29T18:43:49.001Z</time></trkpt><trkpt lat="-27.41833632908781" lon="-52.302510129029855"><ele>516.0</ele><time>2026-03-29T18:43:50.001Z</time></trkpt><trkpt lat="-27.41838329502519" lon="-52.302574256894545"><ele>516.0</ele><time>2026-03-29T18:43:51.001Z</time></trkpt><trkpt lat="-27.418436092197283" lon="-52.302634618695414"><ele>516.0</ele><time>2026-03-29T18:43:52.001Z</time></trkpt><trkpt lat="-27.41849234318967" lon="-52.30268048704717"><ele>516.0</ele><time>2026-03-29T18:43:53.001Z</time></trkpt><trkpt lat="-27.418555563131477" lon="-52.30272195676729"><ele>516.0</ele><time>2026-03-29T18:43:54.001Z</time></trkpt><trkpt lat="-27.41862375271032" lon="-52.30276772684398"><ele>516.0</ele><time>2026-03-29T18:43:55.001Z</time></trkpt><trkpt lat="-27.418686462360384" lon="-52.302802851236"><ele>516.0</ele><time>2026-03-29T18:43:56.001Z</time></trkpt><trkpt lat="-27.41874684231861" lon="-52.302908639431294"><ele>516.0</ele><time>2026-03-29T18:43:58.001Z</time></trkpt><trkpt lat="-27.41876548545467" lon="-52.30301260349098"><ele>516.0</ele><time>2026-03-29T18:43:59.001Z</time></trkpt><trkpt lat="-27.41877534197902" lon="-52.303108815707446"><ele>516.0</ele><time>2026-03-29T18:44:00.001Z</time></trkpt><trkpt lat="-27.418769880371073" lon="-52.30320276534513"><ele>513.4</ele><time>2026-03-29T18:44:01.001Z</time></trkpt><trkpt lat="-27.418766206157084" lon="-52.30331006343003"><ele>510.8</ele><time>2026-03-29T18:44:02.001Z</time></trkpt><trkpt lat="-27.418771358309375" lon="-52.30341687868784"><ele>508.19999999999993</ele><time>2026-03-29T18:44:03.001Z</time></trkpt><trkpt lat="-27.41878525474219" lon="-52.303525915449356"><ele>505.59999999999997</ele><time>2026-03-29T18:44:04.001Z</time></trkpt><trkpt lat="-27.418781582227098" lon="-52.30362069849854"><ele>503.0</ele><time>2026-03-29T18:44:05.001Z</time></trkpt><trkpt lat="-27.418763750251863" lon="-52.303710320753254"><ele>502.99999999999994</ele><time>2026-03-29T18:44:06.001Z</time></trkpt><trkpt lat="-27.418725420487302" lon="-52.30380765952866"><ele>503.0</ele><time>2026-03-29T18:44:07.001Z</time></trkpt><trkpt lat="-27.418687149997933" lon="-52.30389459807665"><ele>503.0</ele><time>2026-03-29T18:44:08.001Z</time></trkpt><trkpt lat="-27.418657058452535" lon="-52.30398181502684"><ele>503.0</ele><time>2026-03-29T18:44:09.001Z</time></trkpt><trkpt lat="-27.418627634516128" lon="-52.30405858883942"><ele>502.99999999999994</ele><time>2026-03-29T18:44:10.001Z</time></trkpt><trkpt lat="-27.418577900067998" lon="-52.304117635434466"><ele>503.0</ele><time>2026-03-29T18:44:11.001Z</time></trkpt><trkpt lat="-27.418500833063742" lon="-52.30418916239498"><ele>500.4</ele><time>2026-03-29T18:44:12.001Z</time></trkpt><trkpt lat="-27.418442577564363" lon="-52.30423660312901"><ele>497.79999999999995</ele><time>2026-03-29T18:44:13.001Z</time></trkpt><trkpt lat="-27.418355359364757" lon="-52.304294675620774"><ele>495.2</ele><time>2026-03-29T18:44:15.001Z</time></trkpt><trkpt lat="-27.41822726508772" lon="-52.304250863174936"><ele>492.6</ele><time>2026-03-29T18:44:17.001Z</time></trkpt><trkpt lat="-27.418148470787425" lon="-52.30421751575625"><ele>490.0</ele><time>2026-03-29T18:44:18.001Z</time></trkpt><trkpt lat="-27.418073287561" lon="-52.30418963812451"><ele>490.00000000000006</ele><time>2026-03-29T18:44:19Z</time></trkpt><trkpt lat="-27.417994200710275" lon="-52.3041437343424"><ele>490.0</ele><time>2026-03-29T18:44:20Z</time></trkpt><trkpt lat="-27.417916020396422" lon="-52.304109672913015"><ele>490.0</ele><time>2026-03-29T18:44:21Z</time></trkpt><trkpt lat="-27.417853135857026" lon="-52.30407169351473"><ele>490.0</ele><time>2026-03-29T18:44:22Z</time></trkpt><trkpt lat="-27.41779532408002" lon="-52.30403252070406"><ele>490.00000000000006</ele><time>2026-03-29T18:44:23Z</time></trkpt><trkpt lat="-27.417735643279027" lon="-52.303984067064206"><ele>490.0</ele><time>2026-03-29T18:44:24Z</time></trkpt><trkpt lat="-27.4176839985809" lon="-52.303914404547626"><ele>489.42857142857144</ele><time>2026-03-29T18:44:25Z</time></trkpt><trkpt lat="-27.417648077691666" lon="-52.303848070945"><ele>488.8571428571429</ele><time>2026-03-29T18:44:26Z</time></trkpt><trkpt lat="-27.417617411679302" lon="-52.30378092267326"><ele>488.2857142857143</ele><time>2026-03-29T18:44:27Z</time></trkpt><trkpt lat="-27.417566679380066" lon="-52.30383775256699"><ele>487.7142857142857</ele><time>2026-03-29T18:44:32Z</time></trkpt><trkpt lat="-27.41760566639531" lon="-52.303902078880334"><ele>487.14285714285717</ele><time>2026-03-29T18:44:33Z</time></trkpt><trkpt lat="-27.41765496555303" lon="-52.30397492331127"><ele>486.57142857142856</ele><time>2026-03-29T18:44:34Z</time></trkpt><trkpt lat="-27.417703528866458" lon="-52.30405817637479"><ele>486.0</ele><time>2026-03-29T18:44:35Z</time></trkpt><trkpt lat="-27.417753560399376" lon="-52.3041377036797"><ele>484.4</ele><time>2026-03-29T18:44:36Z</time></trkpt><trkpt lat="-27.417793050699107" lon="-52.3042205104174"><ele>482.8</ele><time>2026-03-29T18:44:37Z</time></trkpt><trkpt lat="-27.417822358719636" lon="-52.30431191438922"><ele>481.19999999999993</ele><time>2026-03-29T18:44:38Z</time></trkpt><trkpt lat="-27.417841579491256" lon="-52.30439873230247"><ele>479.59999999999997</ele><time>2026-03-29T18:44:39Z</time></trkpt><trkpt lat="-27.417815566911173" lon="-52.304504020570995"><ele>478.0</ele><time>2026-03-29T18:44:41Z</time></trkpt><trkpt lat="-27.417730230857195" lon="-52.304583979789264"><ele>478.00000000000006</ele><time>2026-03-29T18:44:43Z</time></trkpt><trkpt lat="-27.4176418463532" lon="-52.30467932649413"><ele>478.0</ele><time>2026-03-29T18:44:45Z</time></trkpt><trkpt lat="-27.417601052589337" lon="-52.30473931882072"><ele>478.0</ele><time>2026-03-29T18:44:46Z</time></trkpt><trkpt lat="-27.41755639793533" lon="-52.304791603406926"><ele>478.0</ele><time>2026-03-29T18:44:47Z</time></trkpt><trkpt lat="-27.417491477008753" lon="-52.30482218851304"><ele>478.00000000000006</ele><time>2026-03-29T18:44:48Z</time></trkpt><trkpt lat="-27.41740924761188" lon="-52.3048273515846"><ele>478.0</ele><time>2026-03-29T18:44:49Z</time></trkpt><trkpt lat="-27.417330003292268" lon="-52.30481055160004"><ele>476.83333333333337</ele><time>2026-03-29T18:44:50Z</time></trkpt><trkpt lat="-27.41725688730482" lon="-52.30479169803935"><ele>475.6666666666667</ele><time>2026-03-29T18:44:51Z</time></trkpt><trkpt lat="-27.41719145703654" lon="-52.30478588209397"><ele>474.5</ele><time>2026-03-29T18:44:52Z</time></trkpt><trkpt lat="-27.417126616660244" lon="-52.304797402745024"><ele>473.33333333333337</ele><time>2026-03-29T18:44:53Z</time></trkpt><trkpt lat="-27.417021745073402" lon="-52.304851058282225"><ele>472.1666666666667</ele><time>2026-03-29T18:44:55Z</time></trkpt><trkpt lat="-27.416900641815243" lon="-52.30488606680137"><ele>471.0</ele><time>2026-03-29T18:44:57Z</time></trkpt><trkpt lat="-27.41678894121017" lon="-52.30492196113772"><ele>470.1666666666667</ele><time>2026-03-29T18:44:59Z</time></trkpt><trkpt lat="-27.416698787753425" lon="-52.304954160635155"><ele>469.33333333333337</ele><time>2026-03-29T18:45:01Z</time></trkpt><trkpt lat="-27.416646356741374" lon="-52.30499621455145"><ele>468.5</ele><time>2026-03-29T18:45:04Z</time></trkpt><trkpt lat="-27.416625447951244" lon="-52.305071249869854"><ele>467.6666666666667</ele><time>2026-03-29T18:45:10Z</time></trkpt><trkpt lat="-27.416609450447258" lon="-52.30515128675282"><ele>466.83333333333337</ele><time>2026-03-29T18:45:16Z</time></trkpt><trkpt lat="-27.416536276822832" lon="-52.30516659193482"><ele>466.0</ele><time>2026-03-29T18:46:33Z</time></trkpt><trkpt lat="-27.416446263190075" lon="-52.305148874235904"><ele>466.00000000000006</ele><time>2026-03-29T18:46:35Z</time></trkpt><trkpt lat="-27.416334794036327" lon="-52.30507404938514"><ele>466.0</ele><time>2026-03-29T18:46:37Z</time></trkpt><trkpt lat="-27.416258789210417" lon="-52.305023423238595"><ele>466.0</ele><time>2026-03-29T18:46:39Z</time></trkpt><trkpt lat="-27.416197719348283" lon="-52.30499567563681"><ele>466.0</ele><time>2026-03-29T18:46:42Z</time></trkpt><trkpt lat="-27.416135937194287" lon="-52.30497626797104"><ele>466.00000000000006</ele><time>2026-03-29T18:46:45Z</time></trkpt><trkpt lat="-27.416071614445016" lon="-52.30495283465376"><ele>466.0</ele><time>2026-03-29T18:46:48Z</time></trkpt><trkpt lat="-27.416126283826063" lon="-52.305026104195356"><ele>465.8</ele><time>2026-03-29T18:46:52Z</time></trkpt><trkpt lat="-27.416182490039862" lon="-52.3051745633652"><ele>465.6</ele><time>2026-03-29T18:46:54Z</time></trkpt><trkpt lat="-27.416184236141756" lon="-52.30529896900584"><ele>465.4</ele><time>2026-03-29T18:46:56Z</time></trkpt><trkpt lat="-27.41617579419219" lon="-52.30537407329014"><ele>465.2</ele><time>2026-03-29T18:46:57Z</time></trkpt><trkpt lat="-27.416159613504977" lon="-52.30545452623547"><ele>465.0</ele><time>2026-03-29T18:46:58Z</time></trkpt><trkpt lat="-27.41614482019208" lon="-52.30554643034558"><ele>464.2</ele><time>2026-03-29T18:46:59Z</time></trkpt><trkpt lat="-27.416119930699043" lon="-52.30567034318229"><ele>463.4</ele><time>2026-03-29T18:47:00Z</time></trkpt><trkpt lat="-27.41610043304408" lon="-52.305825383485164"><ele>462.6</ele><time>2026-03-29T18:47:01Z</time></trkpt><trkpt lat="-27.416082650481815" lon="-52.30592477239413"><ele>461.8</ele><time>2026-03-29T18:47:02Z</time></trkpt><trkpt lat="-27.416049636820926" lon="-52.30600856440669"><ele>461.0</ele><time>2026-03-29T18:47:04Z</time></trkpt><trkpt lat="-27.415746760919394" lon="-52.30600576718744"><ele>461.0</ele><time>2026-03-29T18:47:07Z</time></trkpt><trkpt lat="-27.415556278158995" lon="-52.30599589057109"><ele>461.0</ele><time>2026-03-29T18:47:08Z</time></trkpt><trkpt lat="-27.415419158631565" lon="-52.30599456089126"><ele>461.0</ele><time>2026-03-29T18:47:09Z</time></trkpt><trkpt lat="-27.41534178066709" lon="-52.30599773711877"><ele>461.0</ele><time>2026-03-29T18:47:09.999Z</time></trkpt><trkpt lat="-27.4152299106895" lon="-52.30594706708057"><ele>460.99999999999994</ele><time>2026-03-29T18:47:11.999Z</time></trkpt><trkpt lat="-27.415149456958442" lon="-52.30589998572801"><ele>461.0</ele><time>2026-03-29T18:47:13.999Z</time></trkpt><trkpt lat="-27.41509008768707" lon="-52.30587482006572"><ele>461.0</ele><time>2026-03-29T18:47:14.999Z</time></trkpt><trkpt lat="-27.41501656528446" lon="-52.305891337565505"><ele>461.0</ele><time>2026-03-29T18:47:16.999Z</time></trkpt><trkpt lat="-27.41495245298302" lon="-52.305998106408246"><ele>460.99999999999994</ele><time>2026-03-29T18:47:18.999Z</time></trkpt><trkpt lat="-27.414882267235757" lon="-52.305994584366346"><ele>461.0</ele><time>2026-03-29T18:47:21.999Z</time></trkpt><trkpt lat="-27.414778813726695" lon="-52.30602666005102"><ele>461.0</ele><time>2026-03-29T18:47:25.999Z</time></trkpt><trkpt lat="-27.414692451440548" lon="-52.30606524910275"><ele>461.0</ele><time>2026-03-29T18:47:27.999Z</time></trkpt><trkpt lat="-27.414593425647453" lon="-52.306116102563536"><ele>461.0</ele><time>2026-03-29T18:47:29.999Z</time></trkpt><trkpt lat="-27.414480479965707" lon="-52.30615113241006"><ele>461.0</ele><time>2026-03-29T18:47:31.999Z</time></trkpt><trkpt lat="-27.414378587225325" lon="-52.30618724692985"><ele>461.0</ele><time>2026-03-29T18:47:33.999Z</time></trkpt><trkpt lat="-27.414286870997568" lon="-52.30620120371262"><ele>459.4</ele><time>2026-03-29T18:47:36.999Z</time></trkpt><trkpt lat="-27.414283830793813" lon="-52.306295082853936"><ele>457.8</ele><time>2026-03-29T18:47:40.001Z</time></trkpt><trkpt lat="-27.4142813762398" lon="-52.30636741244603"><ele>456.19999999999993</ele><time>2026-03-29T18:47:42.001Z</time></trkpt><trkpt lat="-27.414264720065695" lon="-52.30649253646957"><ele>454.59999999999997</ele><time>2026-03-29T18:47:45.001Z</time></trkpt><trkpt lat="-27.414219372587" lon="-52.30663321038349"><ele>453.0</ele><time>2026-03-29T18:47:47.001Z</time></trkpt><trkpt lat="-27.414217267087782" lon="-52.306759202989866"><ele>453.0</ele><time>2026-03-29T18:47:49.001Z</time></trkpt><trkpt lat="-27.414133292830407" lon="-52.30689585371759"><ele>452.99999999999994</ele><time>2026-03-29T18:47:52.001Z</time></trkpt><trkpt lat="-27.414065255695164" lon="-52.306992221178774"><ele>452.99999999999994</ele><time>2026-03-29T18:47:54.001Z</time></trkpt><trkpt lat="-27.414005381404312" lon="-52.3070443827083"><ele>453.0</ele><time>2026-03-29T18:47:57.001Z</time></trkpt><trkpt lat="-27.414008811068456" lon="-52.3071219393024"><ele>453.0</ele><time>2026-03-29T18:48:00Z</time></trkpt><trkpt lat="-27.414009818645724" lon="-52.30724048277882"><ele>452.25</ele><time>2026-03-29T18:48:02Z</time></trkpt><trkpt lat="-27.413923867052592" lon="-52.30733698003683"><ele>451.5</ele><time>2026-03-29T18:48:03Z</time></trkpt><trkpt lat="-27.41385096209747" lon="-52.307441588736175"><ele>450.75</ele><time>2026-03-29T18:48:04Z</time></trkpt><trkpt lat="-27.41376081935002" lon="-52.30759715933924"><ele>450.0</ele><time>2026-03-29T18:48:05Z</time></trkpt><trkpt lat="-27.41366419144844" lon="-52.30775323133614"><ele>450.0</ele><time>2026-03-29T18:48:06Z</time></trkpt><trkpt lat="-27.413600247778547" lon="-52.307863203856385"><ele>450.0</ele><time>2026-03-29T18:48:07Z</time></trkpt><trkpt lat="-27.413539589252125" lon="-52.30801271285391"><ele>450.0</ele><time>2026-03-29T18:48:08Z</time></trkpt><trkpt lat="-27.41348750768178" lon="-52.30821615754016"><ele>451.0</ele><time>2026-03-29T18:48:09Z</time></trkpt><trkpt lat="-27.413442188856322" lon="-52.30840177424751"><ele>452.0</ele><time>2026-03-29T18:48:10Z</time></trkpt><trkpt lat="-27.413415965451193" lon="-52.30852822030384"><ele>453.0</ele><time>2026-03-29T18:48:11Z</time></trkpt><trkpt lat="-27.413406554656586" lon="-52.30863066107845"><ele>454.0</ele><time>2026-03-29T18:48:12Z</time></trkpt><trkpt lat="-27.413416646783382" lon="-52.30870979591565"><ele>455.0</ele><time>2026-03-29T18:48:13Z</time></trkpt><trkpt lat="-27.413433500853483" lon="-52.30878169234964"><ele>454.99999999999994</ele><time>2026-03-29T18:48:14Z</time></trkpt><trkpt lat="-27.413435642927134" lon="-52.30887542135758"><ele>455.0</ele><time>2026-03-29T18:48:16Z</time></trkpt><trkpt lat="-27.41339491872363" lon="-52.30895297584648"><ele>455.0</ele><time>2026-03-29T18:48:18Z</time></trkpt><trkpt lat="-27.413492000705002" lon="-52.30901091962855"><ele>455.0</ele><time>2026-03-29T18:48:21Z</time></trkpt><trkpt lat="-27.41357984923421" lon="-52.30905994989169"><ele>454.99999999999994</ele><time>2026-03-29T18:48:23Z</time></trkpt><trkpt lat="-27.413644362290867" lon="-52.30908557469802"><ele>455.0</ele><time>2026-03-29T18:48:24Z</time></trkpt><trkpt lat="-27.41374181683613" lon="-52.309039307431306"><ele>454.99999999999994</ele><time>2026-03-29T18:48:27Z</time></trkpt><trkpt lat="-27.41385173015592" lon="-52.30899739047979"><ele>455.0</ele><time>2026-03-29T18:48:30Z</time></trkpt><trkpt lat="-27.41391592346318" lon="-52.30896492233308"><ele>455.0</ele><time>2026-03-29T18:48:31Z</time></trkpt><trkpt lat="-27.413996692249004" lon="-52.30895093154602"><ele>455.0</ele><time>2026-03-29T18:48:32Z</time></trkpt><trkpt lat="-27.414067966905293" lon="-52.30894159180298"><ele>454.99999999999994</ele><time>2026-03-29T18:48:33Z</time></trkpt><trkpt lat="-27.414133274654713" lon="-52.30890947021078"><ele>455.0</ele><time>2026-03-29T18:48:34Z</time></trkpt><trkpt lat="-27.414231348112505" lon="-52.308859967110344"><ele>454.99999999999994</ele><time>2026-03-29T18:48:36Z</time></trkpt><trkpt lat="-27.414299341720206" lon="-52.30878177165527"><ele>455.0</ele><time>2026-03-29T18:48:38Z</time></trkpt><trkpt lat="-27.414387139201374" lon="-52.30872365132615"><ele>455.0</ele><time>2026-03-29T18:48:40Z</time></trkpt><trkpt lat="-27.41448269641419" lon="-52.30869104261307"><ele>455.0</ele><time>2026-03-29T18:48:42Z</time></trkpt><trkpt lat="-27.41454235166477" lon="-52.308658468983666"><ele>454.99999999999994</ele><time>2026-03-29T18:48:43Z</time></trkpt><trkpt lat="-27.414599985927964" lon="-52.30860971642786"><ele>455.0</ele><time>2026-03-29T18:48:44Z</time></trkpt><trkpt lat="-27.41466148739086" lon="-52.30857155084543"><ele>455.57142857142856</ele><time>2026-03-29T18:48:45Z</time></trkpt><trkpt lat="-27.41473038391598" lon="-52.3085201198256"><ele>456.1428571428571</ele><time>2026-03-29T18:48:46Z</time></trkpt><trkpt lat="-27.41480285462273" lon="-52.308473861154795"><ele>456.7142857142857</ele><time>2026-03-29T18:48:47Z</time></trkpt><trkpt lat="-27.414869172008846" lon="-52.30844681642767"><ele>457.2857142857143</ele><time>2026-03-29T18:48:47.999Z</time></trkpt><trkpt lat="-27.414919726759926" lon="-52.30839933211287"><ele>457.85714285714283</ele><time>2026-03-29T18:48:49.999Z</time></trkpt><trkpt lat="-27.414991253415" lon="-52.308374311403625"><ele>458.42857142857144</ele><time>2026-03-29T18:48:51.999Z</time></trkpt><trkpt lat="-27.41503473632241" lon="-52.3083144906302"><ele>459.0</ele><time>2026-03-29T18:48:53.999Z</time></trkpt><trkpt lat="-27.415116596183367" lon="-52.30826492633359"><ele>459.0</ele><time>2026-03-29T18:48:56.999Z</time></trkpt><trkpt lat="-27.41516863585302" lon="-52.3081866161944"><ele>459.0</ele><time>2026-03-29T18:48:59.999Z</time></trkpt><trkpt lat="-27.415217400275328" lon="-52.30811449052565"><ele>459.0</ele><time>2026-03-29T18:49:01.999Z</time></trkpt><trkpt lat="-27.415254972994248" lon="-52.3080150545532"><ele>459.0</ele><time>2026-03-29T18:49:04.999Z</time></trkpt><trkpt lat="-27.415302203435058" lon="-52.307959673306975"><ele>459.0</ele><time>2026-03-29T18:49:07.999Z</time></trkpt><trkpt lat="-27.415350499831106" lon="-52.30786097231065"><ele>459.0</ele><time>2026-03-29T18:49:10.999Z</time></trkpt><trkpt lat="-27.415402713196805" lon="-52.3078008983349"><ele>458.79999999999995</ele><time>2026-03-29T18:49:12.999Z</time></trkpt><trkpt lat="-27.415510737642197" lon="-52.30774910202166"><ele>458.59999999999997</ele><time>2026-03-29T18:51:12.999Z</time></trkpt><trkpt lat="-27.415608664512156" lon="-52.30769570119487"><ele>458.4</ele><time>2026-03-29T18:51:13.999Z</time></trkpt><trkpt lat="-27.415681833791613" lon="-52.30764231487528"><ele>458.2</ele><time>2026-03-29T18:51:14.999Z</time></trkpt><trkpt lat="-27.415740274575594" lon="-52.307577135637764"><ele>458.0</ele><time>2026-03-29T18:51:15.999Z</time></trkpt><trkpt lat="-27.415802685033334" lon="-52.30750340182256"><ele>457.99999999999994</ele><time>2026-03-29T18:51:16.999Z</time></trkpt><trkpt lat="-27.41585889717823" lon="-52.30743237798008"><ele>458.0</ele><time>2026-03-29T18:51:17.999Z</time></trkpt><trkpt lat="-27.41591449760764" lon="-52.307337937685226"><ele>458.0</ele><time>2026-03-29T18:51:18.999Z</time></trkpt><trkpt lat="-27.415961948829537" lon="-52.307251293832536"><ele>458.0</ele><time>2026-03-29T18:51:19.999Z</time></trkpt><trkpt lat="-27.415991175391735" lon="-52.30715357996096"><ele>457.99999999999994</ele><time>2026-03-29T18:51:21.999Z</time></trkpt><trkpt lat="-27.415973459580954" lon="-52.30706285983904"><ele>458.0</ele><time>2026-03-29T18:51:23.999Z</time></trkpt><trkpt lat="-27.415984835117765" lon="-52.306889751415525"><ele>458.16666666666663</ele><time>2026-03-29T18:51:25.999Z</time></trkpt><trkpt lat="-27.41599346663306" lon="-52.306787715180505"><ele>458.3333333333333</ele><time>2026-03-29T18:51:26.999Z</time></trkpt><trkpt lat="-27.41599640580519" lon="-52.306716305760254"><ele>458.5</ele><time>2026-03-29T18:51:27.999Z</time></trkpt><trkpt lat="-27.416040323595688" lon="-52.306648687947515"><ele>458.66666666666663</ele><time>2026-03-29T18:51:29.999Z</time></trkpt><trkpt lat="-27.416109227841975" lon="-52.30669054009444"><ele>458.8333333333333</ele><time>2026-03-29T18:51:31.998Z</time></trkpt><trkpt lat="-27.416179756000975" lon="-52.30675129613774"><ele>459.0</ele><time>2026-03-29T18:51:32.998Z</time></trkpt><trkpt lat="-27.416279647855195" lon="-52.306799020907235"><ele>459.6</ele><time>2026-03-29T18:51:33.998Z</time></trkpt><trkpt lat="-27.416391540333418" lon="-52.30681467275979"><ele>460.2</ele><time>2026-03-29T18:51:34.998Z</time></trkpt><trkpt lat="-27.416501763913647" lon="-52.30683556857107"><ele>460.80000000000007</ele><time>2026-03-29T18:51:35.998Z</time></trkpt><trkpt lat="-27.41660516158797" lon="-52.30684656990579"><ele>461.40000000000003</ele><time>2026-03-29T18:51:36.998Z</time></trkpt><trkpt lat="-27.41670236785722" lon="-52.306856816564185"><ele>462.0</ele><time>2026-03-29T18:51:37.998Z</time></trkpt><trkpt lat="-27.416797567458513" lon="-52.30686685510248"><ele>462.0</ele><time>2026-03-29T18:51:38.998Z</time></trkpt><trkpt lat="-27.416892139785183" lon="-52.306877170921815"><ele>462.00000000000006</ele><time>2026-03-29T18:51:39.998Z</time></trkpt><trkpt lat="-27.416986957636958" lon="-52.30688755763029"><ele>462.00000000000006</ele><time>2026-03-29T18:51:40.998Z</time></trkpt><trkpt lat="-27.417078145972535" lon="-52.30689662577215"><ele>462.0</ele><time>2026-03-29T18:51:41.998Z</time></trkpt><trkpt lat="-27.417159751391203" lon="-52.30690474098338"><ele>462.0</ele><time>2026-03-29T18:51:42.998Z</time></trkpt><trkpt lat="-27.41725310640252" lon="-52.30695224096537"><ele>462.25</ele><time>2026-03-29T18:51:44.998Z</time></trkpt><trkpt lat="-27.417300603469833" lon="-52.30702668387667"><ele>462.5</ele><time>2026-03-29T18:51:48.998Z</time></trkpt><trkpt lat="-27.41735430831396" lon="-52.30710186555876"><ele>462.75</ele><time>2026-03-29T18:51:52Z</time></trkpt><trkpt lat="-27.41742075813983" lon="-52.307195452672914"><ele>463.0</ele><time>2026-03-29T18:51:55Z</time></trkpt><trkpt lat="-27.417691083147954" lon="-52.30707198044693"><ele>463.00000000000006</ele><time>2026-03-29T18:51:57Z</time></trkpt><trkpt lat="-27.41777670171203" lon="-52.307107983085814"><ele>463.0</ele><time>2026-03-29T18:51:59Z</time></trkpt><trkpt lat="-27.417834690982293" lon="-52.30714738150654"><ele>463.0</ele><time>2026-03-29T18:52:01Z</time></trkpt><trkpt lat="-27.417881256687508" lon="-52.30721520742414"><ele>463.0</ele><time>2026-03-29T18:52:04Z</time></trkpt><trkpt lat="-27.417938405872693" lon="-52.30727403189256"><ele>463.00000000000006</ele><time>2026-03-29T18:52:07Z</time></trkpt><trkpt lat="-27.417992660710205" lon="-52.30732467835395"><ele>463.0</ele><time>2026-03-29T18:52:09Z</time></trkpt><trkpt lat="-27.417999152772943" lon="-52.30740497409341"><ele>462.0</ele><time>2026-03-29T18:52:13Z</time></trkpt><trkpt lat="-27.41793318931533" lon="-52.30744086712583"><ele>460.99999999999994</ele><time>2026-03-29T18:53:23.999Z</time></trkpt><trkpt lat="-27.41783636865924" lon="-52.30749675777454"><ele>459.99999999999994</ele><time>2026-03-29T18:53:24.999Z</time></trkpt><trkpt lat="-27.417731504570177" lon="-52.307542409614115"><ele>459.0</ele><time>2026-03-29T18:53:25.999Z</time></trkpt><trkpt lat="-27.417631916327664" lon="-52.307580570203704"><ele>458.0</ele><time>2026-03-29T18:53:26.999Z</time></trkpt><trkpt lat="-27.41753033736551" lon="-52.30762199034829"><ele>458.0</ele><time>2026-03-29T18:53:27.999Z</time></trkpt><trkpt lat="-27.417444071241295" lon="-52.307642875618924"><ele>457.99999999999994</ele><time>2026-03-29T18:53:28.998Z</time></trkpt><trkpt lat="-27.417368964735267" lon="-52.3076460269236"><ele>457.99999999999994</ele><time>2026-03-29T18:53:29.998Z</time></trkpt><trkpt lat="-27.417295972425713" lon="-52.30763754256553"><ele>458.0</ele><time>2026-03-29T18:53:30.998Z</time></trkpt><trkpt lat="-27.417250883186984" lon="-52.307583305727825"><ele>458.0</ele><time>2026-03-29T18:53:31.998Z</time></trkpt><trkpt lat="-27.417112418153298" lon="-52.30770135310075"><ele>458.0</ele><time>2026-03-29T18:53:33.998Z</time></trkpt><trkpt lat="-27.417043760069344" lon="-52.307781906333695"><ele>458.0</ele><time>2026-03-29T18:53:34.998Z</time></trkpt><trkpt lat="-27.416952925417952" lon="-52.307868834336524"><ele>458.0</ele><time>2026-03-29T18:53:35.998Z</time></trkpt><trkpt lat="-27.416862127598954" lon="-52.30796003021488"><ele>458.0</ele><time>2026-03-29T18:53:36.998Z</time></trkpt><trkpt lat="-27.416766092217053" lon="-52.308061921135874"><ele>459.25</ele><time>2026-03-29T18:53:37.998Z</time></trkpt><trkpt lat="-27.41666753996351" lon="-52.308173963129136"><ele>460.5</ele><time>2026-03-29T18:53:38.998Z</time></trkpt><trkpt lat="-27.416577754394957" lon="-52.308285927547395"><ele>461.75</ele><time>2026-03-29T18:53:39.998Z</time></trkpt><trkpt lat="-27.41648686694199" lon="-52.30841448177704"><ele>463.0</ele><time>2026-03-29T18:53:40.998Z</time></trkpt><trkpt lat="-27.4163910576035" lon="-52.3085466643889"><ele>463.0</ele><time>2026-03-29T18:53:41.998Z</time></trkpt><trkpt lat="-27.4162861677507" lon="-52.30868416380181"><ele>463.0</ele><time>2026-03-29T18:53:42.998Z</time></trkpt><trkpt lat="-27.416180571567764" lon="-52.30881255231884"><ele>463.0</ele><time>2026-03-29T18:53:43.998Z</time></trkpt><trkpt lat="-27.4160899441216" lon="-52.30893544238634"><ele>463.0</ele><time>2026-03-29T18:53:44.998Z</time></trkpt><trkpt lat="-27.41600490123893" lon="-52.3090677324422"><ele>463.0</ele><time>2026-03-29T18:53:45.998Z</time></trkpt><trkpt lat="-27.415937855961076" lon="-52.30921879881346"><ele>463.0</ele><time>2026-03-29T18:53:46.998Z</time></trkpt><trkpt lat="-27.41587827067051" lon="-52.30938464326662"><ele>463.0</ele><time>2026-03-29T18:53:47.998Z</time></trkpt><trkpt lat="-27.41581692648612" lon="-52.309555618143605"><ele>463.0</ele><time>2026-03-29T18:53:48.998Z</time></trkpt><trkpt lat="-27.415756842240146" lon="-52.30974312656063"><ele>463.0</ele><time>2026-03-29T18:53:49.998Z</time></trkpt><trkpt lat="-27.41569313027561" lon="-52.30994198499217"><ele>462.6666666666667</ele><time>2026-03-29T18:53:50.998Z</time></trkpt><trkpt lat="-27.41562833164785" lon="-52.31014500318687"><ele>462.33333333333337</ele><time>2026-03-29T18:53:51.998Z</time></trkpt><trkpt lat="-27.415577625439997" lon="-52.31034145812568"><ele>462.0</ele><time>2026-03-29T18:53:52.998Z</time></trkpt><trkpt lat="-27.41550386471586" lon="-52.31052045710945"><ele>461.33333333333337</ele><time>2026-03-29T18:53:53.998Z</time></trkpt><trkpt lat="-27.41543755519935" lon="-52.31070268546789"><ele>460.6666666666667</ele><time>2026-03-29T18:53:54.998Z</time></trkpt><trkpt lat="-27.415372444163413" lon="-52.310880098496426"><ele>460.0</ele><time>2026-03-29T18:53:55.998Z</time></trkpt><trkpt lat="-27.41530825436039" lon="-52.31105485181972"><ele>460.0</ele><time>2026-03-29T18:53:57Z</time></trkpt><trkpt lat="-27.41527855409653" lon="-52.31121162731779"><ele>460.0</ele><time>2026-03-29T18:53:58Z</time></trkpt><trkpt lat="-27.41524883151488" lon="-52.31135008531418"><ele>460.0</ele><time>2026-03-29T18:53:59Z</time></trkpt><trkpt lat="-27.415216506421615" lon="-52.31148737826693"><ele>460.0</ele><time>2026-03-29T18:54:00Z</time></trkpt><trkpt lat="-27.415235797070334" lon="-52.311644495253304"><ele>460.6666666666667</ele><time>2026-03-29T18:54:01Z</time></trkpt><trkpt lat="-27.415255291299157" lon="-52.311809611894255"><ele>461.33333333333337</ele><time>2026-03-29T18:54:02Z</time></trkpt><trkpt lat="-27.41529995348165" lon="-52.31198521534644"><ele>462.0</ele><time>2026-03-29T18:54:03Z</time></trkpt><trkpt lat="-27.415354536368923" lon="-52.31216357114712"><ele>462.25</ele><time>2026-03-29T18:54:04Z</time></trkpt><trkpt lat="-27.41540099259977" lon="-52.312321135241504"><ele>462.5</ele><time>2026-03-29T18:54:05Z</time></trkpt><trkpt lat="-27.415412897989405" lon="-52.312466896060094"><ele>462.75</ele><time>2026-03-29T18:54:06Z</time></trkpt><trkpt lat="-27.415427810952778" lon="-52.31261611369923"><ele>463.0</ele><time>2026-03-29T18:54:07Z</time></trkpt><trkpt lat="-27.41546514088343" lon="-52.31275037054817"><ele>464.75</ele><time>2026-03-29T18:54:08Z</time></trkpt><trkpt lat="-27.41551605439133" lon="-52.31288356362454"><ele>466.5</ele><time>2026-03-29T18:54:09Z</time></trkpt><trkpt lat="-27.41555634437037" lon="-52.31303508780996"><ele>468.25</ele><time>2026-03-29T18:54:10Z</time></trkpt><trkpt lat="-27.415589099132447" lon="-52.313199183641224"><ele>470.0</ele><time>2026-03-29T18:54:11Z</time></trkpt><trkpt lat="-27.415631004944345" lon="-52.31336058868413"><ele>470.0</ele><time>2026-03-29T18:54:12Z</time></trkpt><trkpt lat="-27.41567470283702" lon="-52.31352929650496"><ele>470.0</ele><time>2026-03-29T18:54:13Z</time></trkpt><trkpt lat="-27.415722149236817" lon="-52.31371291054395"><ele>470.0</ele><time>2026-03-29T18:54:14Z</time></trkpt><trkpt lat="-27.41578317396585" lon="-52.31386828130912"><ele>471.5</ele><time>2026-03-29T18:54:15Z</time></trkpt><trkpt lat="-27.415840916605738" lon="-52.31400487632307"><ele>473.0</ele><time>2026-03-29T18:54:16Z</time></trkpt><trkpt lat="-27.415917837421915" lon="-52.31412577164286"><ele>474.5</ele><time>2026-03-29T18:54:17Z</time></trkpt><trkpt lat="-27.416002317202842" lon="-52.314218063783706"><ele>476.0</ele><time>2026-03-29T18:54:18Z</time></trkpt><trkpt lat="-27.416066497802785" lon="-52.3143047110108"><ele>475.99999999999994</ele><time>2026-03-29T18:54:19Z</time></trkpt><trkpt lat="-27.416118545154298" lon="-52.31438021600996"><ele>476.0</ele><time>2026-03-29T18:54:20Z</time></trkpt><trkpt lat="-27.416167343344" lon="-52.31444143162635"><ele>476.0</ele><time>2026-03-29T18:54:21Z</time></trkpt><trkpt lat="-27.41621764894871" lon="-52.314487245462395"><ele>476.0</ele><time>2026-03-29T18:54:22Z</time></trkpt><trkpt lat="-27.416301162085272" lon="-52.31455201976971"><ele>475.99999999999994</ele><time>2026-03-29T18:54:24Z</time></trkpt><trkpt lat="-27.41635692868535" lon="-52.31458761294276"><ele>476.0</ele><time>2026-03-29T18:54:27Z</time></trkpt><trkpt lat="-27.416422298455892" lon="-52.314616872984786"><ele>477.8</ele><time>2026-03-29T18:54:34.999Z</time></trkpt><trkpt lat="-27.416484757658452" lon="-52.31465948644322"><ele>479.6</ele><time>2026-03-29T18:54:35.999Z</time></trkpt><trkpt lat="-27.416558394457645" lon="-52.314699093557074"><ele>481.4</ele><time>2026-03-29T18:54:36.999Z</time></trkpt><trkpt lat="-27.416615643048146" lon="-52.314784372126496"><ele>483.2</ele><time>2026-03-29T18:54:37.999Z</time></trkpt><trkpt lat="-27.416697220817973" lon="-52.314848940609046"><ele>485.0</ele><time>2026-03-29T18:54:38.999Z</time></trkpt><trkpt lat="-27.41679437312852" lon="-52.31492503169147"><ele>485.0</ele><time>2026-03-29T18:54:39.999Z</time></trkpt><trkpt lat="-27.416891180898997" lon="-52.31500092633847"><ele>485.0</ele><time>2026-03-29T18:54:40.999Z</time></trkpt><trkpt lat="-27.416983436122205" lon="-52.315074111282165"><ele>485.0</ele><time>2026-03-29T18:54:41.999Z</time></trkpt><trkpt lat="-27.41706278032398" lon="-52.315136380953916"><ele>485.0</ele><time>2026-03-29T18:54:42.999Z</time></trkpt><trkpt lat="-27.416979157984525" lon="-52.315097533227984"><ele>485.0</ele><time>2026-03-29T18:54:50.999Z</time></trkpt><trkpt lat="-27.416862539995858" lon="-52.31521515396079"><ele>485.0</ele><time>2026-03-29T18:54:52.999Z</time></trkpt><trkpt lat="-27.416768769008357" lon="-52.31513073149619"><ele>485.0</ele><time>2026-03-29T18:54:54.999Z</time></trkpt><trkpt lat="-27.41670497111904" lon="-52.31508872696348"><ele>485.0</ele><time>2026-03-29T18:54:56.999Z</time></trkpt><trkpt lat="-27.416652505943976" lon="-52.31500643522252"><ele>485.0</ele><time>2026-03-29T18:54:58.999Z</time></trkpt><trkpt lat="-27.41658817943139" lon="-52.31495577623617"><ele>485.0</ele><time>2026-03-29T18:55:00.999Z</time></trkpt><trkpt lat="-27.416495594428483" lon="-52.314917275239324"><ele>484.99999999999994</ele><time>2026-03-29T18:55:02.999Z</time></trkpt><trkpt lat="-27.416442478579164" lon="-52.31484161177277"><ele>485.0</ele><time>2026-03-29T18:55:04.999Z</time></trkpt><trkpt lat="-27.416357849859107" lon="-52.31483306576091"><ele>485.0</ele><time>2026-03-29T18:55:06.999Z</time></trkpt><trkpt lat="-27.416268763979588" lon="-52.31480824033344"><ele>485.0</ele><time>2026-03-29T18:55:08.999Z</time></trkpt><trkpt lat="-27.41620581013908" lon="-52.31481873582871"><ele>484.99999999999994</ele><time>2026-03-29T18:55:13.999Z</time></trkpt><trkpt lat="-27.416134114217737" lon="-52.3148374805593"><ele>485.0</ele><time>2026-03-29T18:55:28.998Z</time></trkpt><trkpt lat="-27.416170445093062" lon="-52.31490489239325"><ele>485.00000000000006</ele><time>2026-03-29T18:55:35.998Z</time></trkpt><trkpt lat="-27.416211010111287" lon="-52.31496450176553"><ele>485.0</ele><time>2026-03-29T18:55:42.998Z</time></trkpt><trkpt lat="-27.416258361215156" lon="-52.3150130959622"><ele>485.00000000000006</ele><time>2026-03-29T18:55:51.998Z</time></trkpt><trkpt lat="-27.41629739605252" lon="-52.315097002991195"><ele>485.00000000000006</ele><time>2026-03-29T18:56:21.999Z</time></trkpt><trkpt lat="-27.416342904476277" lon="-52.31516600058136"><ele>485.0</ele><time>2026-03-29T18:56:30.999Z</time></trkpt><trkpt lat="-27.416388997955035" lon="-52.315231320628925"><ele>485.00000000000006</ele><time>2026-03-29T18:57:00.999Z</time></trkpt><trkpt lat="-27.416450408730537" lon="-52.31525467314568"><ele>485.00000000000006</ele><time>2026-03-29T18:57:13.999Z</time></trkpt><trkpt lat="-27.41650937879028" lon="-52.3153030134192"><ele>485.00000000000006</ele><time>2026-03-29T18:57:32.998Z</time></trkpt><trkpt lat="-27.416575333173757" lon="-52.315320824754465"><ele>485.0</ele><time>2026-03-29T18:57:40.998Z</time></trkpt><trkpt lat="-27.41663861053209" lon="-52.31530127593843"><ele>485.00000000000006</ele><time>2026-03-29T18:58:04.998Z</time></trkpt><trkpt lat="-27.41668543896501" lon="-52.315365568334485"><ele>485.00000000000006</ele><time>2026-03-29T18:58:42.999Z</time></trkpt><trkpt lat="-27.416665091647882" lon="-52.31528894432962"><ele>485.0</ele><time>2026-03-29T19:00:08.998Z</time></trkpt><trkpt lat="-27.416607083775276" lon="-52.31535219218864"><ele>485.00000000000006</ele><time>2026-03-29T19:02:46Z</time></trkpt><trkpt lat="-27.416660178806715" lon="-52.3154010518628"><ele>485.00000000000006</ele><time>2026-03-29T19:03:15.999Z</time></trkpt><trkpt lat="-27.416653701653008" lon="-52.3153230262481"><ele>485.00000000000006</ele><time>2026-03-29T19:03:26.999Z</time></trkpt><trkpt lat="-27.41662793271196" lon="-52.31539165525753"><ele>485.0</ele><time>2026-03-29T19:03:39.999Z</time></trkpt><trkpt lat="-27.416597848473874" lon="-52.315462916108"><ele>485.00000000000006</ele><time>2026-03-29T19:03:42.999Z</time></trkpt><trkpt lat="-27.416561488340797" lon="-52.31554313472993"><ele>485.00000000000006</ele><time>2026-03-29T19:03:46.999Z</time></trkpt><trkpt lat="-27.416513956431327" lon="-52.31559953378837"><ele>485.0</ele><time>2026-03-29T19:03:48.999Z</time></trkpt><trkpt lat="-27.41646254125301" lon="-52.315654628634725"><ele>485.00000000000006</ele><time>2026-03-29T19:03:50.999Z</time></trkpt><trkpt lat="-27.416396831520142" lon="-52.315703485420926"><ele>485.00000000000006</ele><time>2026-03-29T19:03:52.998Z</time></trkpt><trkpt lat="-27.41630217692224" lon="-52.31579647965184"><ele>486.16666666666663</ele><time>2026-03-29T19:03:54.998Z</time></trkpt><trkpt lat="-27.41622515953905" lon="-52.31583952692392"><ele>487.3333333333333</ele><time>2026-03-29T19:03:56.998Z</time></trkpt><trkpt lat="-27.416181338214223" lon="-52.31589608416965"><ele>488.5</ele><time>2026-03-29T19:03:58.998Z</time></trkpt><trkpt lat="-27.41615563893515" lon="-52.31598648155193"><ele>489.66666666666663</ele><time>2026-03-29T19:04:00.998Z</time></trkpt><trkpt lat="-27.41616813628329" lon="-52.316090816672265"><ele>490.8333333333333</ele><time>2026-03-29T19:04:03.998Z</time></trkpt><trkpt lat="-27.41614048319896" lon="-52.316164516096215"><ele>492.0</ele><time>2026-03-29T19:04:06.998Z</time></trkpt><trkpt lat="-27.4161137131092" lon="-52.31623733111022"><ele>492.0</ele><time>2026-03-29T19:04:09.998Z</time></trkpt><trkpt lat="-27.41604600626332" lon="-52.31627720907463"><ele>492.0</ele><time>2026-03-29T19:04:14.998Z</time></trkpt><trkpt lat="-27.415966667955008" lon="-52.316277760704196"><ele>492.0</ele><time>2026-03-29T19:04:21.998Z</time></trkpt><trkpt lat="-27.415947000267515" lon="-52.316191187081145"><ele>492.0</ele><time>2026-03-29T19:04:23.998Z</time></trkpt><trkpt lat="-27.415961680014124" lon="-52.316112893428524"><ele>492.0</ele><time>2026-03-29T19:04:24.998Z</time></trkpt><trkpt lat="-27.415933484242604" lon="-52.3160217917271"><ele>492.0</ele><time>2026-03-29T19:04:27Z</time></trkpt><trkpt lat="-27.415927326309443" lon="-52.3158898920007"><ele>492.0</ele><time>2026-03-29T19:04:29Z</time></trkpt><trkpt lat="-27.41590936641706" lon="-52.3158036958661"><ele>492.0</ele><time>2026-03-29T19:04:31Z</time></trkpt><trkpt lat="-27.41583398475906" lon="-52.3157899803154"><ele>492.0</ele><time>2026-03-29T19:04:34Z</time></trkpt><trkpt lat="-27.415746212837224" lon="-52.3157569533674"><ele>492.0</ele><time>2026-03-29T19:04:36Z</time></trkpt><trkpt lat="-27.41566348444109" lon="-52.31571375228444"><ele>492.0</ele><time>2026-03-29T19:04:38Z</time></trkpt><trkpt lat="-27.41559886109796" lon="-52.31572614859774"><ele>492.0</ele><time>2026-03-29T19:05:11.999Z</time></trkpt><trkpt lat="-27.415600766976137" lon="-52.31565337413925"><ele>492.00000000000006</ele><time>2026-03-29T19:05:18.999Z</time></trkpt><trkpt lat="-27.41552848792079" lon="-52.31565213341224"><ele>492.0</ele><time>2026-03-29T19:06:17.998Z</time></trkpt><trkpt lat="-27.415592949857064" lon="-52.31564361858981"><ele>492.00000000000006</ele><time>2026-03-29T19:06:49Z</time></trkpt><trkpt lat="-27.415651572578362" lon="-52.31567161354104"><ele>492.00000000000006</ele><time>2026-03-29T19:06:57Z</time></trkpt><trkpt lat="-27.415685706874356" lon="-52.31573668501093"><ele>492.0</ele><time>2026-03-29T19:14:41.998Z</time></trkpt><trkpt lat="-27.415616218741054" lon="-52.31573446673476"><ele>492.00000000000006</ele><time>2026-03-29T19:15:11Z</time></trkpt><trkpt lat="-27.415596190736654" lon="-52.31566621887164"><ele>492.00000000000006</ele><time>2026-03-29T19:15:19.999Z</time></trkpt><trkpt lat="-27.415641669084508" lon="-52.315719375905296"><ele>492.0</ele><time>2026-03-29T19:16:14.998Z</time></trkpt><trkpt lat="-27.415699714372067" lon="-52.31568076819156"><ele>492.0</ele><time>2026-03-29T19:18:34.998Z</time></trkpt><trkpt lat="-27.41575866087397" lon="-52.315749884685864"><ele>492.0</ele><time>2026-03-29T19:18:42.998Z</time></trkpt><trkpt lat="-27.415852940192984" lon="-52.315777635086256"><ele>492.0</ele><time>2026-03-29T19:18:44.998Z</time></trkpt><trkpt lat="-27.415926684948165" lon="-52.315824900334455"><ele>492.0</ele><time>2026-03-29T19:18:46.998Z</time></trkpt><trkpt lat="-27.415984703405996" lon="-52.31589154213592"><ele>492.0</ele><time>2026-03-29T19:18:48.998Z</time></trkpt><trkpt lat="-27.41595911606051" lon="-52.31602406460963"><ele>492.0</ele><time>2026-03-29T19:18:50.998Z</time></trkpt><trkpt lat="-27.415958794445714" lon="-52.31609573964458"><ele>492.0</ele><time>2026-03-29T19:18:51.998Z</time></trkpt><trkpt lat="-27.4160056273918" lon="-52.31618903928176"><ele>492.0</ele><time>2026-03-29T19:18:53.998Z</time></trkpt><trkpt lat="-27.415963369766004" lon="-52.31630766954561"><ele>492.0</ele><time>2026-03-29T19:18:55.998Z</time></trkpt><trkpt lat="-27.41604621642872" lon="-52.31632059516474"><ele>492.0</ele><time>2026-03-29T19:18:58.998Z</time></trkpt><trkpt lat="-27.41611270652865" lon="-52.31635017178784"><ele>492.0</ele><time>2026-03-29T19:19:01.998Z</time></trkpt><trkpt lat="-27.41617361100879" lon="-52.31639044603805"><ele>494.3333333333333</ele><time>2026-03-29T19:19:03.998Z</time></trkpt><trkpt lat="-27.41620411270463" lon="-52.316462840295344"><ele>496.66666666666663</ele><time>2026-03-29T19:19:05.998Z</time></trkpt><trkpt lat="-27.416261572297266" lon="-52.316506732809806"><ele>499.0</ele><time>2026-03-29T19:19:08Z</time></trkpt><trkpt lat="-27.416305321221735" lon="-52.316560199488734"><ele>501.3333333333333</ele><time>2026-03-29T19:19:10Z</time></trkpt><trkpt lat="-27.41634213657465" lon="-52.31663283315758"><ele>503.66666666666663</ele><time>2026-03-29T19:19:12Z</time></trkpt><trkpt lat="-27.416418862390778" lon="-52.31673202980704"><ele>506.0</ele><time>2026-03-29T19:19:14Z</time></trkpt><trkpt lat="-27.41648579704612" lon="-52.31680817690243"><ele>506.00000000000006</ele><time>2026-03-29T19:19:17Z</time></trkpt><trkpt lat="-27.41651244805021" lon="-52.31687433005614"><ele>506.0</ele><time>2026-03-29T19:19:18Z</time></trkpt><trkpt lat="-27.416534080354285" lon="-52.31694662511161"><ele>506.00000000000006</ele><time>2026-03-29T19:19:24Z</time></trkpt><trkpt lat="-27.416598612080058" lon="-52.31696878995051"><ele>506.00000000000006</ele><time>2026-03-29T19:19:29Z</time></trkpt><trkpt lat="-27.416593715312622" lon="-52.316871114601064"><ele>506.0</ele><time>2026-03-29T19:19:33Z</time></trkpt><trkpt lat="-27.41657896535719" lon="-52.31679702542615"><ele>506.00000000000006</ele><time>2026-03-29T19:19:35Z</time></trkpt><trkpt lat="-27.416590349255852" lon="-52.31670390087815"><ele>506.00000000000006</ele><time>2026-03-29T19:19:37Z</time></trkpt><trkpt lat="-27.41671225782642" lon="-52.3166445780958"><ele>505.99999999999994</ele><time>2026-03-29T19:19:39Z</time></trkpt><trkpt lat="-27.416783281197734" lon="-52.31662497182609"><ele>506.0</ele><time>2026-03-29T19:19:41Z</time></trkpt><trkpt lat="-27.416853077020484" lon="-52.31664354268691"><ele>506.0</ele><time>2026-03-29T19:19:42.999Z</time></trkpt><trkpt lat="-27.41692706373505" lon="-52.31663240386664"><ele>506.0</ele><time>2026-03-29T19:19:46.999Z</time></trkpt><trkpt lat="-27.416987457964936" lon="-52.31660137905611"><ele>505.99999999999994</ele><time>2026-03-29T19:19:48.999Z</time></trkpt><trkpt lat="-27.417086480826807" lon="-52.316592680336896"><ele>506.0</ele><time>2026-03-29T19:19:51.999Z</time></trkpt><trkpt lat="-27.417169638020663" lon="-52.31657727570268"><ele>504.16666666666663</ele><time>2026-03-29T19:19:53.999Z</time></trkpt><trkpt lat="-27.41723832849689" lon="-52.31655224884161"><ele>502.3333333333333</ele><time>2026-03-29T19:19:56.999Z</time></trkpt><trkpt lat="-27.41724326837087" lon="-52.316645189533816"><ele>500.5</ele><time>2026-03-29T19:20:00.999Z</time></trkpt><trkpt lat="-27.417273535760675" lon="-52.31672216965946"><ele>498.66666666666663</ele><time>2026-03-29T19:20:02.999Z</time></trkpt><trkpt lat="-27.417353866531826" lon="-52.316770611984985"><ele>496.8333333333333</ele><time>2026-03-29T19:20:04.999Z</time></trkpt><trkpt lat="-27.417423918850368" lon="-52.3167919351959"><ele>495.0</ele><time>2026-03-29T19:20:05.999Z</time></trkpt><trkpt lat="-27.417509811157746" lon="-52.316845105280144"><ele>495.0</ele><time>2026-03-29T19:20:07.999Z</time></trkpt><trkpt lat="-27.417573328174914" lon="-52.31688236481231"><ele>495.0</ele><time>2026-03-29T19:20:10.999Z</time></trkpt><trkpt lat="-27.41757087482896" lon="-52.316802622503815"><ele>495.0</ele><time>2026-03-29T19:20:16.999Z</time></trkpt><trkpt lat="-27.417531721113402" lon="-52.31672324697316"><ele>495.0</ele><time>2026-03-29T19:20:18.999Z</time></trkpt><trkpt lat="-27.417497278986144" lon="-52.31664350927708"><ele>495.0</ele><time>2026-03-29T19:20:20.999Z</time></trkpt><trkpt lat="-27.417563827011687" lon="-52.31658548714497"><ele>495.0</ele><time>2026-03-29T19:20:24.999Z</time></trkpt><trkpt lat="-27.417638214017465" lon="-52.31654359837514"><ele>494.99999999999994</ele><time>2026-03-29T19:20:27.999Z</time></trkpt><trkpt lat="-27.41770314864626" lon="-52.316512736004924"><ele>495.0</ele><time>2026-03-29T19:20:29.999Z</time></trkpt><trkpt lat="-27.41776739711917" lon="-52.31650129217852"><ele>494.99999999999994</ele><time>2026-03-29T19:20:31.999Z</time></trkpt><trkpt lat="-27.4178324758824" lon="-52.31650022906036"><ele>494.99999999999994</ele><time>2026-03-29T19:20:33.998Z</time></trkpt><trkpt lat="-27.41789301040458" lon="-52.31645378271182"><ele>495.0</ele><time>2026-03-29T19:20:36.998Z</time></trkpt><trkpt lat="-27.417934509839757" lon="-52.3163939379391"><ele>494.99999999999994</ele><time>2026-03-29T19:20:38.998Z</time></trkpt><trkpt lat="-27.41801270258606" lon="-52.3163181054123"><ele>494.99999999999994</ele><time>2026-03-29T19:20:40.998Z</time></trkpt><trkpt lat="-27.418077826113368" lon="-52.316228446965326"><ele>495.0</ele><time>2026-03-29T19:20:42.998Z</time></trkpt><trkpt lat="-27.418040195680632" lon="-52.31616342712568"><ele>495.0</ele><time>2026-03-29T19:20:47.998Z</time></trkpt><trkpt lat="-27.418108778209916" lon="-52.31613954325225"><ele>495.0</ele><time>2026-03-29T19:25:16.998Z</time></trkpt><trkpt lat="-27.418172139107497" lon="-52.31621268667187"><ele>495.0</ele><time>2026-03-29T19:25:19.998Z</time></trkpt><trkpt lat="-27.41812916998841" lon="-52.316289352042396"><ele>495.0</ele><time>2026-03-29T19:25:23.998Z</time></trkpt><trkpt lat="-27.41806457790511" lon="-52.316354394192686"><ele>495.0</ele><time>2026-03-29T19:25:26Z</time></trkpt><trkpt lat="-27.418018116726685" lon="-52.31645218901552"><ele>495.0</ele><time>2026-03-29T19:25:28Z</time></trkpt><trkpt lat="-27.41793890220935" lon="-52.316520445079504"><ele>495.0</ele><time>2026-03-29T19:25:31Z</time></trkpt><trkpt lat="-27.417872202494916" lon="-52.31651715484157"><ele>495.0</ele><time>2026-03-29T19:25:36Z</time></trkpt><trkpt lat="-27.417808272499826" lon="-52.316513680957335"><ele>495.0</ele><time>2026-03-29T19:25:39Z</time></trkpt><trkpt lat="-27.41773908574014" lon="-52.316534351299616"><ele>495.0</ele><time>2026-03-29T19:25:42Z</time></trkpt><trkpt lat="-27.417660604706885" lon="-52.31655468175455"><ele>495.0</ele><time>2026-03-29T19:25:45Z</time></trkpt><trkpt lat="-27.41766776384955" lon="-52.316631271952865"><ele>495.0</ele><time>2026-03-29T19:25:50.999Z</time></trkpt><trkpt lat="-27.417716263291055" lon="-52.31669867910597"><ele>495.0</ele><time>2026-03-29T19:25:53.999Z</time></trkpt><trkpt lat="-27.417694721172992" lon="-52.316802215721445"><ele>495.0</ele><time>2026-03-29T19:25:56.999Z</time></trkpt><trkpt lat="-27.417645055174766" lon="-52.31689304681292"><ele>495.0</ele><time>2026-03-29T19:25:59.999Z</time></trkpt><trkpt lat="-27.417544393872912" lon="-52.316865232336156"><ele>495.0</ele><time>2026-03-29T19:26:03.999Z</time></trkpt><trkpt lat="-27.417446074895956" lon="-52.3168225653447"><ele>494.99999999999994</ele><time>2026-03-29T19:26:05.999Z</time></trkpt><trkpt lat="-27.417388814111938" lon="-52.316786182072974"><ele>495.0</ele><time>2026-03-29T19:26:06.999Z</time></trkpt><trkpt lat="-27.41735062677979" lon="-52.316725219563665"><ele>494.99999999999994</ele><time>2026-03-29T19:26:09.999Z</time></trkpt><trkpt lat="-27.417318640881295" lon="-52.31665527313199"><ele>494.99999999999994</ele><time>2026-03-29T19:26:15.999Z</time></trkpt><trkpt lat="-27.417236963800427" lon="-52.316615320377956"><ele>495.0</ele><time>2026-03-29T19:26:18.999Z</time></trkpt><trkpt lat="-27.41715568339573" lon="-52.31658495587431"><ele>494.99999999999994</ele><time>2026-03-29T19:26:22.999Z</time></trkpt><trkpt lat="-27.417099727209692" lon="-52.316622406309875"><ele>494.99999999999994</ele><time>2026-03-29T19:26:24.999Z</time></trkpt><trkpt lat="-27.417032327080786" lon="-52.31661011777286"><ele>496.8333333333333</ele><time>2026-03-29T19:26:28.999Z</time></trkpt><trkpt lat="-27.416968298092733" lon="-52.3165831132438"><ele>498.66666666666663</ele><time>2026-03-29T19:26:31.999Z</time></trkpt><trkpt lat="-27.41686191378297" lon="-52.31661514648864"><ele>500.5</ele><time>2026-03-29T19:26:33.999Z</time></trkpt><trkpt lat="-27.416790112495065" lon="-52.31664089618475"><ele>502.3333333333333</ele><time>2026-03-29T19:26:35.999Z</time></trkpt><trkpt lat="-27.41670660016644" lon="-52.316695979795874"><ele>504.16666666666663</ele><time>2026-03-29T19:26:37.999Z</time></trkpt><trkpt lat="-27.416664201377824" lon="-52.31676468186082"><ele>506.0</ele><time>2026-03-29T19:26:40.998Z</time></trkpt><trkpt lat="-27.416684923001952" lon="-52.31685376489904"><ele>506.0</ele><time>2026-03-29T19:26:43.998Z</time></trkpt><trkpt lat="-27.41665940064087" lon="-52.316949894419274"><ele>506.0</ele><time>2026-03-29T19:26:46.998Z</time></trkpt><trkpt lat="-27.416565708582713" lon="-52.31701131791754"><ele>506.0</ele><time>2026-03-29T19:27:02.998Z</time></trkpt><trkpt lat="-27.41650239189614" lon="-52.31698869903699"><ele>506.0</ele><time>2026-03-29T19:27:15.998Z</time></trkpt><trkpt lat="-27.416414298931084" lon="-52.31693909763396"><ele>506.0</ele><time>2026-03-29T19:27:18.998Z</time></trkpt><trkpt lat="-27.416349105419265" lon="-52.316859053823634"><ele>507.0</ele><time>2026-03-29T19:27:20.998Z</time></trkpt><trkpt lat="-27.416287274705695" lon="-52.31676318032272"><ele>508.0</ele><time>2026-03-29T19:27:22.998Z</time></trkpt><trkpt lat="-27.41622905429578" lon="-52.31666586657374"><ele>509.0</ele><time>2026-03-29T19:27:24.998Z</time></trkpt><trkpt lat="-27.41618316022752" lon="-52.316560974590466"><ele>510.0</ele><time>2026-03-29T19:27:26.998Z</time></trkpt><trkpt lat="-27.41612753247346" lon="-52.31646721567499"><ele>511.0</ele><time>2026-03-29T19:27:28.998Z</time></trkpt><trkpt lat="-27.416074956067682" lon="-52.31640186036187"><ele>507.83333333333337</ele><time>2026-03-29T19:27:31Z</time></trkpt><trkpt lat="-27.41600690040288" lon="-52.316357543486056"><ele>504.6666666666667</ele><time>2026-03-29T19:27:33Z</time></trkpt><trkpt lat="-27.41596931359229" lon="-52.316256363338645"><ele>501.5</ele><time>2026-03-29T19:27:35Z</time></trkpt><trkpt lat="-27.415972001327518" lon="-52.31618127779653"><ele>498.33333333333337</ele><time>2026-03-29T19:27:36Z</time></trkpt><trkpt lat="-27.415940510326077" lon="-52.31609926516002"><ele>495.1666666666667</ele><time>2026-03-29T19:27:38Z</time></trkpt><trkpt lat="-27.415927526306856" lon="-52.315966448921195"><ele>492.0</ele><time>2026-03-29T19:27:40Z</time></trkpt><trkpt lat="-27.41592916216127" lon="-52.31589315304092"><ele>492.0</ele><time>2026-03-29T19:27:41Z</time></trkpt><trkpt lat="-27.415883497708222" lon="-52.31584023348174"><ele>492.0</ele><time>2026-03-29T19:27:43Z</time></trkpt><trkpt lat="-27.415823784133302" lon="-52.315800746159006"><ele>492.0</ele><time>2026-03-29T19:27:45Z</time></trkpt><trkpt lat="-27.415905889189318" lon="-52.315810323518626"><ele>492.0</ele><time>2026-03-29T19:28:16.999Z</time></trkpt><trkpt lat="-27.41597450032653" lon="-52.31588410191758"><ele>492.0</ele><time>2026-03-29T19:28:18.999Z</time></trkpt><trkpt lat="-27.415976773145896" lon="-52.315957503531806"><ele>492.0</ele><time>2026-03-29T19:28:20.999Z</time></trkpt><trkpt lat="-27.415964626655306" lon="-52.31604140753367"><ele>492.0</ele><time>2026-03-29T19:28:21.999Z</time></trkpt><trkpt lat="-27.416002393731652" lon="-52.31613697063772"><ele>492.0</ele><time>2026-03-29T19:28:23.999Z</time></trkpt><trkpt lat="-27.415981166069756" lon="-52.316224615930906"><ele>492.0</ele><time>2026-03-29T19:28:25.999Z</time></trkpt><trkpt lat="-27.41601442252936" lon="-52.3163114974902"><ele>492.0</ele><time>2026-03-29T19:28:28.999Z</time></trkpt><trkpt lat="-27.416081116509496" lon="-52.316319807198454"><ele>492.0</ele><time>2026-03-29T19:28:32.999Z</time></trkpt><trkpt lat="-27.416115018191928" lon="-52.31624936025457"><ele>492.0</ele><time>2026-03-29T19:28:37.999Z</time></trkpt><trkpt lat="-27.4161025643978" lon="-52.31614920324638"><ele>492.0</ele><time>2026-03-29T19:28:40.999Z</time></trkpt><trkpt lat="-27.416124419958503" lon="-52.316046735859366"><ele>492.00000000000006</ele><time>2026-03-29T19:28:42.998Z</time></trkpt><trkpt lat="-27.41613733337481" lon="-52.315956464090846"><ele>492.00000000000006</ele><time>2026-03-29T19:28:44.998Z</time></trkpt><trkpt lat="-27.416214237506235" lon="-52.315914880788554"><ele>492.0</ele><time>2026-03-29T19:28:47.998Z</time></trkpt><trkpt lat="-27.41628962624812" lon="-52.31583696352389"><ele>492.0</ele><time>2026-03-29T19:28:49.998Z</time></trkpt><trkpt lat="-27.416376083869824" lon="-52.315789540525735"><ele>491.5</ele><time>2026-03-29T19:28:51.998Z</time></trkpt><trkpt lat="-27.416449859199577" lon="-52.315744249285714"><ele>491.0</ele><time>2026-03-29T19:28:54.998Z</time></trkpt><trkpt lat="-27.416499168869215" lon="-52.315662177644064"><ele>490.5</ele><time>2026-03-29T19:28:57.998Z</time></trkpt><trkpt lat="-27.416554266710115" lon="-52.3156247406629"><ele>490.0</ele><time>2026-03-29T19:29:00.998Z</time></trkpt><trkpt lat="-27.416594523367245" lon="-52.31556212357009"><ele>489.5</ele><time>2026-03-29T19:29:02.998Z</time></trkpt><trkpt lat="-27.416625347809877" lon="-52.31548010455493"><ele>489.0</ele><time>2026-03-29T19:29:05.998Z</time></trkpt><trkpt lat="-27.416595367513374" lon="-52.31538168432939"><ele>488.3333333333333</ele><time>2026-03-29T19:29:37Z</time></trkpt><trkpt lat="-27.41653475613911" lon="-52.31536103081956"><ele>487.66666666666663</ele><time>2026-03-29T19:30:03.999Z</time></trkpt><trkpt lat="-27.416455089787167" lon="-52.31531883210798"><ele>487.0</ele><time>2026-03-29T19:30:08.999Z</time></trkpt><trkpt lat="-27.416402242356288" lon="-52.31527952313458"><ele>486.3333333333333</ele><time>2026-03-29T19:30:11.999Z</time></trkpt><trkpt lat="-27.416331217592578" lon="-52.315213143501666"><ele>485.66666666666663</ele><time>2026-03-29T19:30:13.999Z</time></trkpt><trkpt lat="-27.41629707821343" lon="-52.31514729742626"><ele>485.0</ele><time>2026-03-29T19:30:17.999Z</time></trkpt><trkpt lat="-27.41625077906052" lon="-52.3150276883428"><ele>485.16666666666663</ele><time>2026-03-29T19:30:20.999Z</time></trkpt><trkpt lat="-27.41621480145474" lon="-52.31491933621308"><ele>485.3333333333333</ele><time>2026-03-29T19:30:22.999Z</time></trkpt><trkpt lat="-27.41618679196294" lon="-52.314844157813866"><ele>485.5</ele><time>2026-03-29T19:30:25.999Z</time></trkpt><trkpt lat="-27.416247019286217" lon="-52.3148123392684"><ele>485.66666666666663</ele><time>2026-03-29T19:30:27.999Z</time></trkpt><trkpt lat="-27.416316687561704" lon="-52.31476877448334"><ele>485.8333333333333</ele><time>2026-03-29T19:30:31.999Z</time></trkpt><trkpt lat="-27.41636978608479" lon="-52.31472043137957"><ele>486.0</ele><time>2026-03-29T19:30:33.999Z</time></trkpt><trkpt lat="-27.416403412175757" lon="-52.31463713282917"><ele>483.5</ele><time>2026-03-29T19:30:36.999Z</time></trkpt><trkpt lat="-27.416266819843248" lon="-52.31452810759308"><ele>481.0</ele><time>2026-03-29T19:30:38.999Z</time></trkpt><trkpt lat="-27.416202168586327" lon="-52.31446529222379"><ele>478.5</ele><time>2026-03-29T19:30:39.999Z</time></trkpt><trkpt lat="-27.41612809954655" lon="-52.3143218036522"><ele>476.0</ele><time>2026-03-29T19:30:40.999Z</time></trkpt><trkpt lat="-27.416003876204066" lon="-52.31416138178203"><ele>476.0</ele><time>2026-03-29T19:30:41.999Z</time></trkpt><trkpt lat="-27.415909032218686" lon="-52.314013548985564"><ele>476.0</ele><time>2026-03-29T19:30:42.999Z</time></trkpt><trkpt lat="-27.415833328964847" lon="-52.31389452530076"><ele>476.0</ele><time>2026-03-29T19:30:43.999Z</time></trkpt><trkpt lat="-27.4157837151752" lon="-52.313791244176635"><ele>476.0</ele><time>2026-03-29T19:30:44.999Z</time></trkpt><trkpt lat="-27.415746958775056" lon="-52.313674145916536"><ele>474.0</ele><time>2026-03-29T19:30:45.999Z</time></trkpt><trkpt lat="-27.415710498744502" lon="-52.313533516836685"><ele>472.0</ele><time>2026-03-29T19:30:46.999Z</time></trkpt><trkpt lat="-27.415647001439734" lon="-52.31333504411411"><ele>470.0</ele><time>2026-03-29T19:30:47.999Z</time></trkpt><trkpt lat="-27.415605250777205" lon="-52.31317017722333"><ele>470.25</ele><time>2026-03-29T19:30:48.999Z</time></trkpt><trkpt lat="-27.415567653324917" lon="-52.31302882802385"><ele>470.5</ele><time>2026-03-29T19:30:49.998Z</time></trkpt><trkpt lat="-27.41553066537626" lon="-52.31290238098505"><ele>470.75</ele><time>2026-03-29T19:30:50.998Z</time></trkpt><trkpt lat="-27.4154937243991" lon="-52.31277481048336"><ele>471.0</ele><time>2026-03-29T19:30:51.998Z</time></trkpt><trkpt lat="-27.415462975476448" lon="-52.31264379040844"><ele>469.4</ele><time>2026-03-29T19:30:52.998Z</time></trkpt><trkpt lat="-27.415441574979397" lon="-52.31251031755033"><ele>467.8</ele><time>2026-03-29T19:30:53.998Z</time></trkpt><trkpt lat="-27.41543830301914" lon="-52.31238221840215"><ele>466.19999999999993</ele><time>2026-03-29T19:30:54.998Z</time></trkpt><trkpt lat="-27.415395555091365" lon="-52.312276955330184"><ele>464.59999999999997</ele><time>2026-03-29T19:30:55.998Z</time></trkpt><trkpt lat="-27.4153812556103" lon="-52.31215185226898"><ele>463.0</ele><time>2026-03-29T19:30:56.998Z</time></trkpt><trkpt lat="-27.41535391600468" lon="-52.312033023899566"><ele>462.75</ele><time>2026-03-29T19:30:57.998Z</time></trkpt><trkpt lat="-27.415319298211962" lon="-52.31190039063442"><ele>462.5</ele><time>2026-03-29T19:30:58.998Z</time></trkpt><trkpt lat="-27.41528909460054" lon="-52.311761484005665"><ele>462.25</ele><time>2026-03-29T19:30:59.998Z</time></trkpt><trkpt lat="-27.415269160971228" lon="-52.311630052386235"><ele>462.0</ele><time>2026-03-29T19:31:00.998Z</time></trkpt><trkpt lat="-27.415262737922646" lon="-52.31149460005758"><ele>461.5</ele><time>2026-03-29T19:31:01.998Z</time></trkpt><trkpt lat="-27.415281255085834" lon="-52.31136006596438"><ele>461.0</ele><time>2026-03-29T19:31:02.998Z</time></trkpt><trkpt lat="-27.41531202602188" lon="-52.31121967364741"><ele>460.5</ele><time>2026-03-29T19:31:03.998Z</time></trkpt><trkpt lat="-27.41534698974406" lon="-52.311082699920036"><ele>460.0</ele><time>2026-03-29T19:31:04.998Z</time></trkpt><trkpt lat="-27.415396521632914" lon="-52.31094518931466"><ele>460.0</ele><time>2026-03-29T19:31:05.998Z</time></trkpt><trkpt lat="-27.415450345886565" lon="-52.310810611797464"><ele>460.0</ele><time>2026-03-29T19:31:06.998Z</time></trkpt><trkpt lat="-27.415505950597506" lon="-52.31067881843986"><ele>460.0</ele><time>2026-03-29T19:31:07.998Z</time></trkpt><trkpt lat="-27.415561942336257" lon="-52.31054215288692"><ele>460.0</ele><time>2026-03-29T19:31:08.998Z</time></trkpt><trkpt lat="-27.415606598191385" lon="-52.310403329973965"><ele>460.5</ele><time>2026-03-29T19:31:09.998Z</time></trkpt><trkpt lat="-27.415649871442167" lon="-52.31024440683661"><ele>461.0</ele><time>2026-03-29T19:31:10.998Z</time></trkpt><trkpt lat="-27.415685761865628" lon="-52.31008540365027"><ele>461.5</ele><time>2026-03-29T19:31:11.998Z</time></trkpt><trkpt lat="-27.415731617825866" lon="-52.30992458362555"><ele>462.0</ele><time>2026-03-29T19:31:12.998Z</time></trkpt><trkpt lat="-27.415785361477873" lon="-52.30976382777398"><ele>462.25</ele><time>2026-03-29T19:31:13.998Z</time></trkpt><trkpt lat="-27.415848788388026" lon="-52.309600979765776"><ele>462.5</ele><time>2026-03-29T19:31:14.998Z</time></trkpt><trkpt lat="-27.41590425149683" lon="-52.3094452906875"><ele>462.75</ele><time>2026-03-29T19:31:15.998Z</time></trkpt><trkpt lat="-27.415951331491524" lon="-52.309308565265184"><ele>463.0</ele><time>2026-03-29T19:31:16.998Z</time></trkpt><trkpt lat="-27.416002763135772" lon="-52.30917949138911"><ele>463.0</ele><time>2026-03-29T19:31:17.998Z</time></trkpt><trkpt lat="-27.41605850582377" lon="-52.309061625162464"><ele>463.0</ele><time>2026-03-29T19:31:18.998Z</time></trkpt><trkpt lat="-27.41612569514739" lon="-52.30895391903746"><ele>463.0</ele><time>2026-03-29T19:31:19.998Z</time></trkpt><trkpt lat="-27.416204791462942" lon="-52.3088393010076"><ele>463.0</ele><time>2026-03-29T19:31:20.998Z</time></trkpt><trkpt lat="-27.416300133096435" lon="-52.308710692054575"><ele>463.0</ele><time>2026-03-29T19:31:21.998Z</time></trkpt><trkpt lat="-27.416405895968087" lon="-52.308597336931875"><ele>463.0</ele><time>2026-03-29T19:31:22.998Z</time></trkpt><trkpt lat="-27.416511841725484" lon="-52.30847964108958"><ele>463.0</ele><time>2026-03-29T19:31:23.998Z</time></trkpt><trkpt lat="-27.416610514274684" lon="-52.30835454967876"><ele>463.0</ele><time>2026-03-29T19:31:24.998Z</time></trkpt><trkpt lat="-27.41669317321558" lon="-52.30823202400435"><ele>463.0</ele><time>2026-03-29T19:31:25.998Z</time></trkpt><trkpt lat="-27.416774554964416" lon="-52.30811837133686"><ele>463.0</ele><time>2026-03-29T19:31:26.998Z</time></trkpt><trkpt lat="-27.416870474023614" lon="-52.308004963564855"><ele>463.0</ele><time>2026-03-29T19:31:27.998Z</time></trkpt><trkpt lat="-27.41698369298979" lon="-52.30789883191705"><ele>463.0</ele><time>2026-03-29T19:31:28.998Z</time></trkpt><trkpt lat="-27.41708543407135" lon="-52.30780220028663"><ele>461.75</ele><time>2026-03-29T19:31:29.998Z</time></trkpt><trkpt lat="-27.41718275921327" lon="-52.30771214475888"><ele>460.5</ele><time>2026-03-29T19:31:30.998Z</time></trkpt><trkpt lat="-27.41726003398924" lon="-52.307619804486414"><ele>459.25</ele><time>2026-03-29T19:31:31.998Z</time></trkpt><trkpt lat="-27.417335425515024" lon="-52.30754684009095"><ele>458.0</ele><time>2026-03-29T19:31:32.998Z</time></trkpt><trkpt lat="-27.4173575207548" lon="-52.30741165009396"><ele>458.0</ele><time>2026-03-29T19:31:33.998Z</time></trkpt><trkpt lat="-27.41738728006564" lon="-52.30729413987651"><ele>457.99999999999994</ele><time>2026-03-29T19:31:34.998Z</time></trkpt><trkpt lat="-27.417397937571085" lon="-52.307182384273645"><ele>457.99999999999994</ele><time>2026-03-29T19:31:35.998Z</time></trkpt><trkpt lat="-27.41739382750845" lon="-52.3070764278697"><ele>458.0</ele><time>2026-03-29T19:31:36.998Z</time></trkpt><trkpt lat="-27.417365061945304" lon="-52.306975845297806"><ele>458.0</ele><time>2026-03-29T19:31:37.998Z</time></trkpt><trkpt lat="-27.41728655858619" lon="-52.30691855567772"><ele>458.79999999999995</ele><time>2026-03-29T19:31:38.997Z</time></trkpt><trkpt lat="-27.417210436159824" lon="-52.30685092499103"><ele>459.59999999999997</ele><time>2026-03-29T19:31:39.997Z</time></trkpt><trkpt lat="-27.417104715711837" lon="-52.30683432864981"><ele>460.40000000000003</ele><time>2026-03-29T19:31:40.997Z</time></trkpt><trkpt lat="-27.417004477768458" lon="-52.306844356581145"><ele>461.20000000000005</ele><time>2026-03-29T19:31:41.997Z</time></trkpt><trkpt lat="-27.41686438079637" lon="-52.306834437570124"><ele>462.0</ele><time>2026-03-29T19:31:43Z</time></trkpt><trkpt lat="-27.416721016940492" lon="-52.30682515134988"><ele>462.0</ele><time>2026-03-29T19:31:44Z</time></trkpt><trkpt lat="-27.41654933227228" lon="-52.30680014569015"><ele>462.0</ele><time>2026-03-29T19:31:45Z</time></trkpt><trkpt lat="-27.416411885454668" lon="-52.30678548202635"><ele>462.0</ele><time>2026-03-29T19:31:46Z</time></trkpt><trkpt lat="-27.41629678265097" lon="-52.30677834350635"><ele>462.0</ele><time>2026-03-29T19:31:47Z</time></trkpt><trkpt lat="-27.416200630073508" lon="-52.30675805199856"><ele>461.40000000000003</ele><time>2026-03-29T19:31:48Z</time></trkpt><trkpt lat="-27.416128604823644" lon="-52.3067273878806"><ele>460.80000000000007</ele><time>2026-03-29T19:31:49Z</time></trkpt><trkpt lat="-27.41604560328392" lon="-52.30666029276484"><ele>460.2</ele><time>2026-03-29T19:31:51Z</time></trkpt><trkpt lat="-27.415996417390577" lon="-52.306785359124504"><ele>459.6</ele><time>2026-03-29T19:31:55Z</time></trkpt><trkpt lat="-27.415994497362114" lon="-52.30687936707797"><ele>459.0</ele><time>2026-03-29T19:31:56Z</time></trkpt><trkpt lat="-27.415999303995157" lon="-52.30696025435455"><ele>459.0</ele><time>2026-03-29T19:31:57Z</time></trkpt><trkpt lat="-27.415991448205265" lon="-52.307062941739964"><ele>459.0</ele><time>2026-03-29T19:31:58Z</time></trkpt><trkpt lat="-27.41596441652172" lon="-52.30713385968052"><ele>459.0</ele><time>2026-03-29T19:31:59Z</time></trkpt><trkpt lat="-27.415978792832142" lon="-52.30721633503132"><ele>459.0</ele><time>2026-03-29T19:32:01Z</time></trkpt><trkpt lat="-27.415941456901713" lon="-52.307348354667134"><ele>459.0</ele><time>2026-03-29T19:32:02.999Z</time></trkpt><trkpt lat="-27.415879809316877" lon="-52.30743648760811"><ele>458.8333333333333</ele><time>2026-03-29T19:32:03.999Z</time></trkpt><trkpt lat="-27.415820828472533" lon="-52.307519370590235"><ele>458.66666666666663</ele><time>2026-03-29T19:32:04.999Z</time></trkpt><trkpt lat="-27.41577644482587" lon="-52.30757529107062"><ele>458.5</ele><time>2026-03-29T19:32:05.999Z</time></trkpt><trkpt lat="-27.415710609431947" lon="-52.30763963377973"><ele>458.3333333333333</ele><time>2026-03-29T19:32:06.999Z</time></trkpt><trkpt lat="-27.415628971711975" lon="-52.30771404258006"><ele>458.16666666666663</ele><time>2026-03-29T19:32:07.999Z</time></trkpt><trkpt lat="-27.415565131469133" lon="-52.30776036472329"><ele>458.0</ele><time>2026-03-29T19:32:08.999Z</time></trkpt><trkpt lat="-27.41549909983961" lon="-52.307793301112454"><ele>457.85714285714283</ele><time>2026-03-29T19:32:09.999Z</time></trkpt><trkpt lat="-27.415415715624537" lon="-52.307819848198676"><ele>457.7142857142858</ele><time>2026-03-29T19:32:10.999Z</time></trkpt><trkpt lat="-27.415346168981262" lon="-52.307826593508445"><ele>457.5714285714286</ele><time>2026-03-29T19:32:11.999Z</time></trkpt><trkpt lat="-27.415350594409354" lon="-52.3079020631096"><ele>457.42857142857144</ele><time>2026-03-29T19:32:26.999Z</time></trkpt><trkpt lat="-27.415357254900833" lon="-52.3079808442227"><ele>457.28571428571433</ele><time>2026-03-29T19:32:30.999Z</time></trkpt><trkpt lat="-27.415326633085037" lon="-52.30804592036168"><ele>457.1428571428572</ele><time>2026-03-29T19:32:32.999Z</time></trkpt><trkpt lat="-27.415275953310463" lon="-52.30810653899157"><ele>457.00000000000006</ele><time>2026-03-29T19:32:35.999Z</time></trkpt><trkpt lat="-27.41521256476168" lon="-52.30817428243449"><ele>457.33333333333337</ele><time>2026-03-29T19:32:38.999Z</time></trkpt><trkpt lat="-27.41513867623922" lon="-52.308247603244965"><ele>457.6666666666667</ele><time>2026-03-29T19:32:41.999Z</time></trkpt><trkpt lat="-27.415111891785273" lon="-52.30831380809483"><ele>458.0</ele><time>2026-03-29T19:32:43.999Z</time></trkpt><trkpt lat="-27.41505165253884" lon="-52.30836504169266"><ele>458.33333333333337</ele><time>2026-03-29T19:32:46.999Z</time></trkpt><trkpt lat="-27.41499141756559" lon="-52.30841482127593"><ele>458.6666666666667</ele><time>2026-03-29T19:32:48.999Z</time></trkpt><trkpt lat="-27.414942281635234" lon="-52.30845931732492"><ele>459.0</ele><time>2026-03-29T19:32:51.998Z</time></trkpt><trkpt lat="-27.41486348528123" lon="-52.30852457939296"><ele>459.0</ele><time>2026-03-29T19:32:55.998Z</time></trkpt><trkpt lat="-27.414803744495675" lon="-52.30856532565193"><ele>459.0</ele><time>2026-03-29T19:32:57.998Z</time></trkpt><trkpt lat="-27.414702581748863" lon="-52.30861723631313"><ele>459.0</ele><time>2026-03-29T19:32:59.998Z</time></trkpt><trkpt lat="-27.41462337242466" lon="-52.30866509271511"><ele>459.0</ele><time>2026-03-29T19:33:01.998Z</time></trkpt><trkpt lat="-27.414552803522277" lon="-52.30869484037186"><ele>459.0</ele><time>2026-03-29T19:33:03.998Z</time></trkpt><trkpt lat="-27.41448946324203" lon="-52.30873503407235"><ele>459.0</ele><time>2026-03-29T19:33:06.998Z</time></trkpt><trkpt lat="-27.414429649262647" lon="-52.30878382478614"><ele>458.8333333333333</ele><time>2026-03-29T19:33:08.998Z</time></trkpt><trkpt lat="-27.41436383689913" lon="-52.30882876787677"><ele>458.66666666666663</ele><time>2026-03-29T19:33:11.998Z</time></trkpt><trkpt lat="-27.414308210395635" lon="-52.30887888296064"><ele>458.5</ele><time>2026-03-29T19:33:14.998Z</time></trkpt><trkpt lat="-27.414255201830905" lon="-52.30893332328392"><ele>458.3333333333333</ele><time>2026-03-29T19:33:17.998Z</time></trkpt><trkpt lat="-27.414191478791814" lon="-52.3089438262867"><ele>458.16666666666663</ele><time>2026-03-29T19:33:19.998Z</time></trkpt><trkpt lat="-27.414099367191323" lon="-52.30897566217369"><ele>458.0</ele><time>2026-03-29T19:33:22.998Z</time></trkpt><trkpt lat="-27.41402955972872" lon="-52.3090038107791"><ele>457.99999999999994</ele><time>2026-03-29T19:33:24.998Z</time></trkpt><trkpt lat="-27.413975011859787" lon="-52.30904603520291"><ele>458.0</ele><time>2026-03-29T19:33:26.998Z</time></trkpt><trkpt lat="-27.413885801166995" lon="-52.3090612314532"><ele>458.0</ele><time>2026-03-29T19:33:28.998Z</time></trkpt><trkpt lat="-27.413804469860324" lon="-52.3091086477637"><ele>458.0</ele><time>2026-03-29T19:33:30.998Z</time></trkpt><trkpt lat="-27.41374064629574" lon="-52.30913027127077"><ele>457.99999999999994</ele><time>2026-03-29T19:33:32.998Z</time></trkpt><trkpt lat="-27.41363079780261" lon="-52.30910536768619"><ele>458.0</ele><time>2026-03-29T19:33:42.997Z</time></trkpt><trkpt lat="-27.413548512145486" lon="-52.30908133411741"><ele>458.3333333333333</ele><time>2026-03-29T19:33:45.997Z</time></trkpt><trkpt lat="-27.41348713586256" lon="-52.30902032996218"><ele>458.66666666666663</ele><time>2026-03-29T19:33:47.997Z</time></trkpt><trkpt lat="-27.413466954461718" lon="-52.30893151707674"><ele>459.0</ele><time>2026-03-29T19:33:50Z</time></trkpt><trkpt lat="-27.413453156473345" lon="-52.30885026141361"><ele>459.33333333333337</ele><time>2026-03-29T19:33:53Z</time></trkpt><trkpt lat="-27.413422842865963" lon="-52.30871631884742"><ele>459.6666666666667</ele><time>2026-03-29T19:33:55Z</time></trkpt><trkpt lat="-27.413426226101883" lon="-52.308634985065105"><ele>460.0</ele><time>2026-03-29T19:33:56Z</time></trkpt><trkpt lat="-27.413440263817108" lon="-52.308535452122584"><ele>458.75</ele><time>2026-03-29T19:33:57Z</time></trkpt><trkpt lat="-27.413454567514002" lon="-52.30840604883068"><ele>457.5</ele><time>2026-03-29T19:33:58Z</time></trkpt><trkpt lat="-27.41349093940167" lon="-52.3082499265404"><ele>456.25</ele><time>2026-03-29T19:33:59Z</time></trkpt><trkpt lat="-27.413533598491753" lon="-52.30810812411979"><ele>455.0</ele><time>2026-03-29T19:34:00Z</time></trkpt><trkpt lat="-27.413571567971644" lon="-52.30798213097452"><ele>454.0</ele><time>2026-03-29T19:34:01Z</time></trkpt><trkpt lat="-27.413599392881252" lon="-52.30787896530815"><ele>453.0</ele><time>2026-03-29T19:34:02Z</time></trkpt><trkpt lat="-27.413643945763425" lon="-52.30778250190401"><ele>452.0</ele><time>2026-03-29T19:34:03Z</time></trkpt><trkpt lat="-27.413695898210513" lon="-52.30769204896013"><ele>451.0</ele><time>2026-03-29T19:34:04Z</time></trkpt><trkpt lat="-27.413769896943244" lon="-52.30759685651454"><ele>450.0</ele><time>2026-03-29T19:34:05Z</time></trkpt><trkpt lat="-27.413863924635688" lon="-52.30748176777402"><ele>449.8333333333333</ele><time>2026-03-29T19:34:06Z</time></trkpt><trkpt lat="-27.413924263522688" lon="-52.30738518649728"><ele>449.66666666666663</ele><time>2026-03-29T19:34:06.999Z</time></trkpt><trkpt lat="-27.41397349833366" lon="-52.30731249149888"><ele>449.5</ele><time>2026-03-29T19:34:07.999Z</time></trkpt><trkpt lat="-27.414016931410107" lon="-52.30725978011652"><ele>449.3333333333333</ele><time>2026-03-29T19:34:08.999Z</time></trkpt><trkpt lat="-27.414010620842216" lon="-52.30718511483811"><ele>449.16666666666663</ele><time>2026-03-29T19:34:15.999Z</time></trkpt><trkpt lat="-27.413993914301656" lon="-52.307113358633956"><ele>449.0</ele><time>2026-03-29T19:34:20.999Z</time></trkpt><trkpt lat="-27.41405133578677" lon="-52.30703231823182"><ele>449.57142857142856</ele><time>2026-03-29T19:34:28.999Z</time></trkpt><trkpt lat="-27.41408883437712" lon="-52.30696142675157"><ele>450.1428571428571</ele><time>2026-03-29T19:34:30.999Z</time></trkpt><trkpt lat="-27.41413833297463" lon="-52.30691181112951"><ele>450.71428571428567</ele><time>2026-03-29T19:34:31.999Z</time></trkpt><trkpt lat="-27.41416615069287" lon="-52.306823898252"><ele>451.2857142857142</ele><time>2026-03-29T19:34:34.999Z</time></trkpt><trkpt lat="-27.414182875900963" lon="-52.30674986240523"><ele>451.85714285714283</ele><time>2026-03-29T19:34:36.999Z</time></trkpt><trkpt lat="-27.414209846115067" lon="-52.30667849205564"><ele>452.42857142857133</ele><time>2026-03-29T19:34:37.999Z</time></trkpt><trkpt lat="-27.41420708849645" lon="-52.30658850246137"><ele>452.99999999999994</ele><time>2026-03-29T19:34:39.999Z</time></trkpt><trkpt lat="-27.414227092933228" lon="-52.30647746123448"><ele>453.0</ele><time>2026-03-29T19:34:42.999Z</time></trkpt><trkpt lat="-27.414219187659576" lon="-52.30638664228009"><ele>453.0</ele><time>2026-03-29T19:34:45.999Z</time></trkpt><trkpt lat="-27.414218816539826" lon="-52.30630545179868"><ele>453.0</ele><time>2026-03-29T19:34:47.999Z</time></trkpt><trkpt lat="-27.41426711737839" lon="-52.30624615802349"><ele>453.0</ele><time>2026-03-29T19:34:50.999Z</time></trkpt><trkpt lat="-27.4143375973372" lon="-52.30620934393059"><ele>453.0</ele><time>2026-03-29T19:34:53.999Z</time></trkpt><trkpt lat="-27.414393626311227" lon="-52.30616163177117"><ele>453.0</ele><time>2026-03-29T19:34:55.998Z</time></trkpt><trkpt lat="-27.414461662323234" lon="-52.3061034515922"><ele>453.0</ele><time>2026-03-29T19:34:57.998Z</time></trkpt><trkpt lat="-27.414559567273017" lon="-52.306074002252025"><ele>452.99999999999994</ele><time>2026-03-29T19:34:59.998Z</time></trkpt><trkpt lat="-27.414643541042548" lon="-52.306036601697414"><ele>452.99999999999994</ele><time>2026-03-29T19:35:01.998Z</time></trkpt><trkpt lat="-27.414736838125716" lon="-52.306002664419246"><ele>453.0</ele><time>2026-03-29T19:35:03.998Z</time></trkpt><trkpt lat="-27.41480417789184" lon="-52.30598941754813"><ele>453.0</ele><time>2026-03-29T19:35:05.998Z</time></trkpt><trkpt lat="-27.414898023642706" lon="-52.305999598365084"><ele>454.59999999999997</ele><time>2026-03-29T19:35:08.998Z</time></trkpt><trkpt lat="-27.414955689300022" lon="-52.30593559700387"><ele>456.19999999999993</ele><time>2026-03-29T19:35:09.998Z</time></trkpt><trkpt lat="-27.41503574463502" lon="-52.305882414448156"><ele>457.8</ele><time>2026-03-29T19:35:11.998Z</time></trkpt><trkpt lat="-27.415145968683348" lon="-52.30590156408127"><ele>459.4</ele><time>2026-03-29T19:35:13.998Z</time></trkpt><trkpt lat="-27.415250440550274" lon="-52.3059542323885"><ele>461.0</ele><time>2026-03-29T19:35:15.998Z</time></trkpt><trkpt lat="-27.415309663936306" lon="-52.305988620908494"><ele>461.0</ele><time>2026-03-29T19:35:16.998Z</time></trkpt><trkpt lat="-27.415425608925297" lon="-52.30602054562365"><ele>461.0</ele><time>2026-03-29T19:35:18.998Z</time></trkpt><trkpt lat="-27.415501410162687" lon="-52.306017126334844"><ele>461.0</ele><time>2026-03-29T19:35:19.998Z</time></trkpt><trkpt lat="-27.415616370834737" lon="-52.30601211932895"><ele>461.0</ele><time>2026-03-29T19:35:20.998Z</time></trkpt><trkpt lat="-27.41578944539462" lon="-52.30601075347457"><ele>461.0</ele><time>2026-03-29T19:35:21.998Z</time></trkpt><trkpt lat="-27.415934110848003" lon="-52.30600772911762"><ele>461.0</ele><time>2026-03-29T19:35:22.998Z</time></trkpt><trkpt lat="-27.416021097476182" lon="-52.30600826677705"><ele>461.0</ele><time>2026-03-29T19:35:23.998Z</time></trkpt><trkpt lat="-27.416084142828492" lon="-52.30599707131034"><ele>461.0</ele><time>2026-03-29T19:35:25.998Z</time></trkpt><trkpt lat="-27.416145156705955" lon="-52.30591336189646"><ele>461.0</ele><time>2026-03-29T19:35:28.998Z</time></trkpt><trkpt lat="-27.416157509416365" lon="-52.30582386136335"><ele>461.0</ele><time>2026-03-29T19:35:29.998Z</time></trkpt><trkpt lat="-27.416171017474383" lon="-52.30569600480287"><ele>461.0</ele><time>2026-03-29T19:35:30.998Z</time></trkpt><trkpt lat="-27.41619067743289" lon="-52.30555507523031"><ele>461.0</ele><time>2026-03-29T19:35:31.998Z</time></trkpt><trkpt lat="-27.416216126063222" lon="-52.30540132621163"><ele>461.0</ele><time>2026-03-29T19:35:32.998Z</time></trkpt><trkpt lat="-27.416231282912673" lon="-52.305297871970666"><ele>461.8</ele><time>2026-03-29T19:35:33.998Z</time></trkpt><trkpt lat="-27.41623685072748" lon="-52.30522165351504"><ele>462.6</ele><time>2026-03-29T19:35:34.998Z</time></trkpt><trkpt lat="-27.416233271819166" lon="-52.305132436947545"><ele>463.4</ele><time>2026-03-29T19:35:36.998Z</time></trkpt><trkpt lat="-27.416141186556686" lon="-52.30499632597332"><ele>464.2</ele><time>2026-03-29T19:35:42.997Z</time></trkpt><trkpt lat="-27.416033898153323" lon="-52.30493796305477"><ele>465.0</ele><time>2026-03-29T19:35:43.997Z</time></trkpt><trkpt lat="-27.415883297468294" lon="-52.304861593252085"><ele>465.0</ele><time>2026-03-29T19:35:44.997Z</time></trkpt><trkpt lat="-27.415718398909586" lon="-52.304763161894094"><ele>465.0</ele><time>2026-03-29T19:35:45.997Z</time></trkpt><trkpt lat="-27.415527810191243" lon="-52.30465144280962"><ele>465.0</ele><time>2026-03-29T19:35:46.997Z</time></trkpt><trkpt lat="-27.415320691200186" lon="-52.304537709306274"><ele>468.0</ele><time>2026-03-29T19:35:47.997Z</time></trkpt><trkpt lat="-27.415095214040935" lon="-52.30441699701397"><ele>471.0</ele><time>2026-03-29T19:35:48.997Z</time></trkpt><trkpt lat="-27.41487179287094" lon="-52.304287955243886"><ele>471.5</ele><time>2026-03-29T19:35:49.997Z</time></trkpt><trkpt lat="-27.414634549621418" lon="-52.30414918988476"><ele>472.0</ele><time>2026-03-29T19:35:50.997Z</time></trkpt><trkpt lat="-27.414390306238204" lon="-52.30400679672485"><ele>483.5</ele><time>2026-03-29T19:35:51.997Z</time></trkpt><trkpt lat="-27.41413972787967" lon="-52.3038664281256"><ele>495.0</ele><time>2026-03-29T19:35:52.997Z</time></trkpt><trkpt lat="-27.413879712380936" lon="-52.30372624395956"><ele>490.5</ele><time>2026-03-29T19:35:54Z</time></trkpt><trkpt lat="-27.41361306811628" lon="-52.30358422532535"><ele>486.0</ele><time>2026-03-29T19:35:55Z</time></trkpt><trkpt lat="-27.413374840371706" lon="-52.30346106844268"><ele>486.0</ele><time>2026-03-29T19:35:55.999Z</time></trkpt><trkpt lat="-27.413158892313092" lon="-52.30336585610659"><ele>486.0</ele><time>2026-03-29T19:35:57Z</time></trkpt><trkpt lat="-27.41292366011775" lon="-52.303308168566815"><ele>480.5</ele><time>2026-03-29T19:35:58Z</time></trkpt><trkpt lat="-27.412673645178035" lon="-52.30328749296203"><ele>475.0</ele><time>2026-03-29T19:35:59Z</time></trkpt><trkpt lat="-27.41242640568229" lon="-52.30329936089826"><ele>475.0</ele><time>2026-03-29T19:36:00Z</time></trkpt><trkpt lat="-27.412213806361635" lon="-52.30334294211168"><ele>475.0</ele><time>2026-03-29T19:36:01Z</time></trkpt><trkpt lat="-27.41201475015694" lon="-52.30339340353976"><ele>475.0</ele><time>2026-03-29T19:36:02Z</time></trkpt><trkpt lat="-27.411827050385405" lon="-52.30344890666022"><ele>474.6666666666667</ele><time>2026-03-29T19:36:03Z</time></trkpt><trkpt lat="-27.411634834812983" lon="-52.30348979475398"><ele>474.33333333333337</ele><time>2026-03-29T19:36:04Z</time></trkpt><trkpt lat="-27.411443291198335" lon="-52.3035279164064"><ele>474.0</ele><time>2026-03-29T19:36:05Z</time></trkpt><trkpt lat="-27.41125486702714" lon="-52.30355983553228"><ele>472.66666666666663</ele><time>2026-03-29T19:36:06Z</time></trkpt><trkpt lat="-27.41106778996166" lon="-52.30359735554943"><ele>471.3333333333333</ele><time>2026-03-29T19:36:07Z</time></trkpt><trkpt lat="-27.41085980850262" lon="-52.303644153543516"><ele>470.0</ele><time>2026-03-29T19:36:08Z</time></trkpt><trkpt lat="-27.41066274210408" lon="-52.303686533857885"><ele>469.0</ele><time>2026-03-29T19:36:08.999Z</time></trkpt><trkpt lat="-27.41048218469698" lon="-52.30370878116456"><ele>468.0</ele><time>2026-03-29T19:36:09.999Z</time></trkpt><trkpt lat="-27.41031471613176" lon="-52.30374455374331"><ele>467.0</ele><time>2026-03-29T19:36:10.999Z</time></trkpt><trkpt lat="-27.410157778384107" lon="-52.303781464139135"><ele>467.0</ele><time>2026-03-29T19:36:11.999Z</time></trkpt><trkpt lat="-27.410002383649932" lon="-52.30379196017464"><ele>467.0</ele><time>2026-03-29T19:36:12.999Z</time></trkpt><trkpt lat="-27.409849947603412" lon="-52.30381722810214"><ele>467.0</ele><time>2026-03-29T19:36:13.999Z</time></trkpt><trkpt lat="-27.409684662865107" lon="-52.30384462583833"><ele>464.66666666666663</ele><time>2026-03-29T19:36:14.999Z</time></trkpt><trkpt lat="-27.409495209496164" lon="-52.303875848648644"><ele>462.33333333333337</ele><time>2026-03-29T19:36:15.999Z</time></trkpt><trkpt lat="-27.409276283780006" lon="-52.30391799658983"><ele>460.0</ele><time>2026-03-29T19:36:16.999Z</time></trkpt><trkpt lat="-27.409035362251316" lon="-52.303972571471945"><ele>459.0</ele><time>2026-03-29T19:36:17.999Z</time></trkpt><trkpt lat="-27.408801734627342" lon="-52.304024390871014"><ele>458.0</ele><time>2026-03-29T19:36:18.999Z</time></trkpt><trkpt lat="-27.408587894581277" lon="-52.30411446180398"><ele>458.0</ele><time>2026-03-29T19:36:19.999Z</time></trkpt><trkpt lat="-27.408363472634647" lon="-52.30420968608414"><ele>458.0</ele><time>2026-03-29T19:36:20.999Z</time></trkpt><trkpt lat="-27.408139278826987" lon="-52.30435673274214"><ele>462.0</ele><time>2026-03-29T19:36:21.999Z</time></trkpt><trkpt lat="-27.40793230646332" lon="-52.30452928980685"><ele>466.0</ele><time>2026-03-29T19:36:22.999Z</time></trkpt><trkpt lat="-27.40775298392247" lon="-52.30473160435282"><ele>461.5</ele><time>2026-03-29T19:36:23.999Z</time></trkpt><trkpt lat="-27.40755591820758" lon="-52.3049397988984"><ele>457.0</ele><time>2026-03-29T19:36:24.999Z</time></trkpt><trkpt lat="-27.407367371241133" lon="-52.305141056828894"><ele>457.0</ele><time>2026-03-29T19:36:25.999Z</time></trkpt><trkpt lat="-27.40720638551238" lon="-52.30531344602488"><ele>457.0</ele><time>2026-03-29T19:36:26.999Z</time></trkpt><trkpt lat="-27.407054199323976" lon="-52.30547641234991"><ele>457.0</ele><time>2026-03-29T19:36:27.999Z</time></trkpt><trkpt lat="-27.406911094034637" lon="-52.30562913073515"><ele>456.33333333333337</ele><time>2026-03-29T19:36:28.999Z</time></trkpt><trkpt lat="-27.406779849031597" lon="-52.30576914620851"><ele>455.66666666666663</ele><time>2026-03-29T19:36:29.999Z</time></trkpt><trkpt lat="-27.406670664404736" lon="-52.30588620392014"><ele>455.0</ele><time>2026-03-29T19:36:30.999Z</time></trkpt><trkpt lat="-27.40658257958145" lon="-52.30597996531205"><ele>455.0</ele><time>2026-03-29T19:36:31.999Z</time></trkpt><trkpt lat="-27.4065175916067" lon="-52.3060495523341"><ele>455.0</ele><time>2026-03-29T19:36:32.999Z</time></trkpt><trkpt lat="-27.406467282094063" lon="-52.306103421947086"><ele>455.0</ele><time>2026-03-29T19:36:34.999Z</time></trkpt><trkpt lat="-27.406653170422995" lon="-52.30628351259419"><ele>455.0</ele><time>2026-03-29T19:36:38.999Z</time></trkpt><trkpt lat="-27.406565438192697" lon="-52.306231549989086"><ele>455.0</ele><time>2026-03-29T19:36:50.999Z</time></trkpt><trkpt lat="-27.40649138584723" lon="-52.306213344336626"><ele>455.0</ele><time>2026-03-29T19:36:53.999Z</time></trkpt><trkpt lat="-27.406431662658935" lon="-52.30623675486928"><ele>455.0</ele><time>2026-03-29T19:36:54.999Z</time></trkpt><trkpt lat="-27.406353363813746" lon="-52.306289170753985"><ele>455.0</ele><time>2026-03-29T19:36:55.999Z</time></trkpt><trkpt lat="-27.406273914312408" lon="-52.30636988956217"><ele>455.0</ele><time>2026-03-29T19:36:56.999Z</time></trkpt><trkpt lat="-27.406162602870392" lon="-52.30642966233743"><ele>451.66666666666663</ele><time>2026-03-29T19:36:57.999Z</time></trkpt><trkpt lat="-27.40606645098562" lon="-52.30653265816007"><ele>448.33333333333337</ele><time>2026-03-29T19:36:58.998Z</time></trkpt><trkpt lat="-27.405952577466536" lon="-52.30665476509291"><ele>445.0</ele><time>2026-03-29T19:36:59.998Z</time></trkpt><trkpt lat="-27.4058225790531" lon="-52.306794164156464"><ele>445.0</ele><time>2026-03-29T19:37:00.998Z</time></trkpt><trkpt lat="-27.40568404542012" lon="-52.30694040199675"><ele>445.0</ele><time>2026-03-29T19:37:01.998Z</time></trkpt><trkpt lat="-27.40553737401486" lon="-52.30710459344885"><ele>445.0</ele><time>2026-03-29T19:37:02.998Z</time></trkpt><trkpt lat="-27.405396249237775" lon="-52.307261917113124"><ele>442.0</ele><time>2026-03-29T19:37:03.998Z</time></trkpt><trkpt lat="-27.405254896271828" lon="-52.307409982202216"><ele>439.0</ele><time>2026-03-29T19:37:04.998Z</time></trkpt><trkpt lat="-27.405103956047967" lon="-52.30754828164951"><ele>436.0</ele><time>2026-03-29T19:37:05.998Z</time></trkpt><trkpt lat="-27.404938896593602" lon="-52.307644661434885"><ele>436.0</ele><time>2026-03-29T19:37:06.998Z</time></trkpt><trkpt lat="-27.40474657115018" lon="-52.307726352086284"><ele>436.0</ele><time>2026-03-29T19:37:07.998Z</time></trkpt><trkpt lat="-27.40454918233164" lon="-52.30779220580689"><ele>436.0</ele><time>2026-03-29T19:37:08.998Z</time></trkpt><trkpt lat="-27.40434881099695" lon="-52.30781006170887"><ele>435.33333333333337</ele><time>2026-03-29T19:37:09.998Z</time></trkpt><trkpt lat="-27.40414465441454" lon="-52.30779255888872"><ele>434.66666666666663</ele><time>2026-03-29T19:37:10.998Z</time></trkpt><trkpt lat="-27.403947120645817" lon="-52.30778105026402"><ele>434.0</ele><time>2026-03-29T19:37:11.998Z</time></trkpt><trkpt lat="-27.40376443723669" lon="-52.3077510415165"><ele>434.0</ele><time>2026-03-29T19:37:12.998Z</time></trkpt><trkpt lat="-27.40360176147192" lon="-52.30773280212041"><ele>434.0</ele><time>2026-03-29T19:37:13.998Z</time></trkpt><trkpt lat="-27.40345177557274" lon="-52.30771503890946"><ele>434.0</ele><time>2026-03-29T19:37:14.998Z</time></trkpt><trkpt lat="-27.403305624249008" lon="-52.30769395090575"><ele>434.0</ele><time>2026-03-29T19:37:15.998Z</time></trkpt><trkpt lat="-27.403165081327522" lon="-52.30768293464426"><ele>434.0</ele><time>2026-03-29T19:37:16.998Z</time></trkpt><trkpt lat="-27.403022985181302" lon="-52.3076725310247"><ele>434.0</ele><time>2026-03-29T19:37:17.998Z</time></trkpt><trkpt lat="-27.402883235969657" lon="-52.3076611602413"><ele>434.0</ele><time>2026-03-29T19:37:18.998Z</time></trkpt><trkpt lat="-27.40274650184539" lon="-52.30766371849082"><ele>434.25</ele><time>2026-03-29T19:37:19.998Z</time></trkpt><trkpt lat="-27.402610625358005" lon="-52.30765511386563"><ele>434.5</ele><time>2026-03-29T19:37:20.998Z</time></trkpt><trkpt lat="-27.402471355060722" lon="-52.30765008241839"><ele>434.75</ele><time>2026-03-29T19:37:21.998Z</time></trkpt><trkpt lat="-27.402322843692158" lon="-52.30763768217382"><ele>435.0</ele><time>2026-03-29T19:37:22.998Z</time></trkpt><trkpt lat="-27.402161095993073" lon="-52.30762721493083"><ele>435.0</ele><time>2026-03-29T19:37:23.998Z</time></trkpt><trkpt lat="-27.40199584941367" lon="-52.30760613196048"><ele>435.0</ele><time>2026-03-29T19:37:24.998Z</time></trkpt><trkpt lat="-27.40183140345891" lon="-52.30758748388187"><ele>435.0</ele><time>2026-03-29T19:37:25.998Z</time></trkpt><trkpt lat="-27.40167698087774" lon="-52.307563056538875"><ele>435.0</ele><time>2026-03-29T19:37:26.998Z</time></trkpt><trkpt lat="-27.40152854514276" lon="-52.307528484213705"><ele>435.0</ele><time>2026-03-29T19:37:27.998Z</time></trkpt><trkpt lat="-27.40138724865472" lon="-52.307468807769"><ele>435.0</ele><time>2026-03-29T19:37:28.998Z</time></trkpt><trkpt lat="-27.40125679532008" lon="-52.30737581756635"><ele>434.66666666666663</ele><time>2026-03-29T19:37:29.998Z</time></trkpt><trkpt lat="-27.40113409933006" lon="-52.30724255149758"><ele>434.3333333333333</ele><time>2026-03-29T19:37:30.998Z</time></trkpt><trkpt lat="-27.401033071355815" lon="-52.30708409030135"><ele>434.0</ele><time>2026-03-29T19:37:31.998Z</time></trkpt><trkpt lat="-27.400935409514073" lon="-52.30692370555999"><ele>434.0</ele><time>2026-03-29T19:37:32.998Z</time></trkpt><trkpt lat="-27.40083733638898" lon="-52.30676526419751"><ele>434.0</ele><time>2026-03-29T19:37:33.998Z</time></trkpt><trkpt lat="-27.40073174243664" lon="-52.30661618864817"><ele>434.0</ele><time>2026-03-29T19:37:34.998Z</time></trkpt><trkpt lat="-27.400626412796967" lon="-52.306462838198094"><ele>431.0</ele><time>2026-03-29T19:37:35.998Z</time></trkpt><trkpt lat="-27.400526300925655" lon="-52.30631921407745"><ele>428.0</ele><time>2026-03-29T19:37:36.998Z</time></trkpt><trkpt lat="-27.400429191217768" lon="-52.30617445622779"><ele>425.0</ele><time>2026-03-29T19:37:37.998Z</time></trkpt><trkpt lat="-27.400331306898845" lon="-52.30604605587628"><ele>425.0</ele><time>2026-03-29T19:37:38.998Z</time></trkpt><trkpt lat="-27.400236004636387" lon="-52.30592322196836"><ele>425.0</ele><time>2026-03-29T19:37:39.998Z</time></trkpt><trkpt lat="-27.400151958485495" lon="-52.305810698386296"><ele>425.0</ele><time>2026-03-29T19:37:40.998Z</time></trkpt><trkpt lat="-27.4000690401442" lon="-52.30570285289019"><ele>425.0</ele><time>2026-03-29T19:37:41.998Z</time></trkpt><trkpt lat="-27.39998320744744" lon="-52.30562067456578"><ele>425.5</ele><time>2026-03-29T19:37:42.998Z</time></trkpt><trkpt lat="-27.399884807692384" lon="-52.30551463482052"><ele>426.0</ele><time>2026-03-29T19:37:43.998Z</time></trkpt><trkpt lat="-27.39979050566819" lon="-52.30538955389298"><ele>426.5</ele><time>2026-03-29T19:37:44.998Z</time></trkpt><trkpt lat="-27.399696642152083" lon="-52.30525633405489"><ele>427.0</ele><time>2026-03-29T19:37:45.998Z</time></trkpt><trkpt lat="-27.39960290111581" lon="-52.30511502699156"><ele>426.33333333333337</ele><time>2026-03-29T19:37:46.998Z</time></trkpt><trkpt lat="-27.399491631501927" lon="-52.3049776304263"><ele>425.66666666666663</ele><time>2026-03-29T19:37:47.997Z</time></trkpt><trkpt lat="-27.399370491355562" lon="-52.30483672897553"><ele>425.0</ele><time>2026-03-29T19:37:48.997Z</time></trkpt><trkpt lat="-27.399261707477894" lon="-52.30469827068724"><ele>425.0</ele><time>2026-03-29T19:37:49.997Z</time></trkpt><trkpt lat="-27.39913313709514" lon="-52.3045393243751"><ele>425.0</ele><time>2026-03-29T19:37:50.997Z</time></trkpt><trkpt lat="-27.399024303751446" lon="-52.30439977717484"><ele>425.0</ele><time>2026-03-29T19:37:51.997Z</time></trkpt><trkpt lat="-27.398917929272535" lon="-52.30426313658967"><ele>424.3333333333333</ele><time>2026-03-29T19:37:52.997Z</time></trkpt><trkpt lat="-27.398813313888738" lon="-52.3041350556061"><ele>423.66666666666663</ele><time>2026-03-29T19:37:53.997Z</time></trkpt><trkpt lat="-27.398708505897154" lon="-52.30400991426189"><ele>423.0</ele><time>2026-03-29T19:37:54.997Z</time></trkpt><trkpt lat="-27.39861088578151" lon="-52.303882790362195"><ele>423.0</ele><time>2026-03-29T19:37:55.997Z</time></trkpt><trkpt lat="-27.398514381493804" lon="-52.303771179966965"><ele>423.0</ele><time>2026-03-29T19:37:56.997Z</time></trkpt><trkpt lat="-27.39842888763297" lon="-52.303656280855336"><ele>423.0</ele><time>2026-03-29T19:37:57.997Z</time></trkpt><trkpt lat="-27.398333365522998" lon="-52.30353360659809"><ele>423.0</ele><time>2026-03-29T19:37:58.997Z</time></trkpt><trkpt lat="-27.398241991680724" lon="-52.30340773744528"><ele>423.0</ele><time>2026-03-29T19:38:00Z</time></trkpt><trkpt lat="-27.398145985955303" lon="-52.30329212494678"><ele>423.0</ele><time>2026-03-29T19:38:01Z</time></trkpt><trkpt lat="-27.398037830725244" lon="-52.30315532958202"><ele>423.0</ele><time>2026-03-29T19:38:02Z</time></trkpt><trkpt lat="-27.397939286246327" lon="-52.30302994922159"><ele>424.25</ele><time>2026-03-29T19:38:03Z</time></trkpt><trkpt lat="-27.397842346790437" lon="-52.30290629261166"><ele>425.5</ele><time>2026-03-29T19:38:04Z</time></trkpt><trkpt lat="-27.3977434198936" lon="-52.30278467298339"><ele>426.75</ele><time>2026-03-29T19:38:05Z</time></trkpt><trkpt lat="-27.397648397653565" lon="-52.30267431412956"><ele>428.0</ele><time>2026-03-29T19:38:06Z</time></trkpt><trkpt lat="-27.397544609791144" lon="-52.302564788116776"><ele>428.0</ele><time>2026-03-29T19:38:07Z</time></trkpt><trkpt lat="-27.397433569079958" lon="-52.302458270053044"><ele>428.0</ele><time>2026-03-29T19:38:08Z</time></trkpt><trkpt lat="-27.397314176226402" lon="-52.30237709653923"><ele>428.0</ele><time>2026-03-29T19:38:09Z</time></trkpt><trkpt lat="-27.39716617455564" lon="-52.302331676237465"><ele>428.0</ele><time>2026-03-29T19:38:10Z</time></trkpt><trkpt lat="-27.396997054019245" lon="-52.302317047736196"><ele>427.0</ele><time>2026-03-29T19:38:11Z</time></trkpt><trkpt lat="-27.396831556952588" lon="-52.30231721654194"><ele>426.0</ele><time>2026-03-29T19:38:12Z</time></trkpt><trkpt lat="-27.39666647132126" lon="-52.30230356612084"><ele>425.0</ele><time>2026-03-29T19:38:13Z</time></trkpt><trkpt lat="-27.39649865778063" lon="-52.30235126510624"><ele>425.0</ele><time>2026-03-29T19:38:14Z</time></trkpt><trkpt lat="-27.396358164894565" lon="-52.30236845677868"><ele>425.0</ele><time>2026-03-29T19:38:15Z</time></trkpt><trkpt lat="-27.396238188149848" lon="-52.30238121744505"><ele>425.0</ele><time>2026-03-29T19:38:16Z</time></trkpt><trkpt lat="-27.39612575049013" lon="-52.302380278034754"><ele>425.0</ele><time>2026-03-29T19:38:17Z</time></trkpt><trkpt lat="-27.39602686394382" lon="-52.30236248500108"><ele>424.66666666666663</ele><time>2026-03-29T19:38:17.999Z</time></trkpt><trkpt lat="-27.395965368355238" lon="-52.302302799928256"><ele>424.3333333333333</ele><time>2026-03-29T19:38:18.999Z</time></trkpt><trkpt lat="-27.39590233233968" lon="-52.3022449659407"><ele>424.0</ele><time>2026-03-29T19:38:19.999Z</time></trkpt><trkpt lat="-27.395878080275565" lon="-52.30214653025605"><ele>423.66666666666663</ele><time>2026-03-29T19:38:20.999Z</time></trkpt><trkpt lat="-27.39588477805221" lon="-52.30204054448021"><ele>423.3333333333333</ele><time>2026-03-29T19:38:21.999Z</time></trkpt><trkpt lat="-27.39590523645258" lon="-52.301931584619304"><ele>423.0</ele><time>2026-03-29T19:38:22.999Z</time></trkpt><trkpt lat="-27.395909722040027" lon="-52.30182760526718"><ele>423.0</ele><time>2026-03-29T19:38:23.999Z</time></trkpt><trkpt lat="-27.39591047073205" lon="-52.30171405442953"><ele>423.0</ele><time>2026-03-29T19:38:24.999Z</time></trkpt><trkpt lat="-27.39591104145491" lon="-52.301602025035926"><ele>423.0</ele><time>2026-03-29T19:38:25.999Z</time></trkpt><trkpt lat="-27.395913922843434" lon="-52.30148611796626"><ele>423.0</ele><time>2026-03-29T19:38:26.999Z</time></trkpt><trkpt lat="-27.395913360207807" lon="-52.301365100184036"><ele>423.0</ele><time>2026-03-29T19:38:27.999Z</time></trkpt><trkpt lat="-27.39590998675127" lon="-52.301235878802764"><ele>423.0</ele><time>2026-03-29T19:38:28.999Z</time></trkpt><trkpt lat="-27.395905045601037" lon="-52.301109824241976"><ele>423.0</ele><time>2026-03-29T19:38:29.999Z</time></trkpt><trkpt lat="-27.395896191099357" lon="-52.300986725223666"><ele>423.0</ele><time>2026-03-29T19:38:30.999Z</time></trkpt><trkpt lat="-27.395884211979787" lon="-52.30086583001281"><ele>423.0</ele><time>2026-03-29T19:38:31.999Z</time></trkpt><trkpt lat="-27.395874640560862" lon="-52.300751867055546"><ele>423.0</ele><time>2026-03-29T19:38:32.999Z</time></trkpt><trkpt lat="-27.39587005042071" lon="-52.30064113947452"><ele>421.8333333333333</ele><time>2026-03-29T19:38:33.999Z</time></trkpt><trkpt lat="-27.395869189692664" lon="-52.3005328283166"><ele>420.66666666666663</ele><time>2026-03-29T19:38:34.999Z</time></trkpt><trkpt lat="-27.395865607168652" lon="-52.30044041864088"><ele>419.5</ele><time>2026-03-29T19:38:35.999Z</time></trkpt><trkpt lat="-27.395859882721936" lon="-52.30034847904236"><ele>418.3333333333333</ele><time>2026-03-29T19:38:36.999Z</time></trkpt><trkpt lat="-27.395860412437404" lon="-52.30027290874693"><ele>417.16666666666663</ele><time>2026-03-29T19:38:37.999Z</time></trkpt><trkpt lat="-27.395810564655918" lon="-52.3002147612353"><ele>416.0</ele><time>2026-03-29T19:38:39.999Z</time></trkpt><trkpt lat="-27.39574239705536" lon="-52.30022977234585"><ele>415.99999999999994</ele><time>2026-03-29T19:38:40.999Z</time></trkpt><trkpt lat="-27.39568321328686" lon="-52.30025883218752"><ele>416.0</ele><time>2026-03-29T19:38:41.999Z</time></trkpt><trkpt lat="-27.395612822745193" lon="-52.30027392941668"><ele>416.0</ele><time>2026-03-29T19:38:42.999Z</time></trkpt><trkpt lat="-27.395535991570718" lon="-52.300275492987595"><ele>416.0</ele><time>2026-03-29T19:38:43.999Z</time></trkpt><trkpt lat="-27.395445039383393" lon="-52.30027219350019"><ele>415.99999999999994</ele><time>2026-03-29T19:38:44.999Z</time></trkpt><trkpt lat="-27.395356201337275" lon="-52.300280752517565"><ele>416.0</ele><time>2026-03-29T19:38:45.999Z</time></trkpt><trkpt lat="-27.395265349785394" lon="-52.30028518250565"><ele>415.66666666666663</ele><time>2026-03-29T19:38:46.999Z</time></trkpt><trkpt lat="-27.39517131316266" lon="-52.300292155552974"><ele>415.3333333333333</ele><time>2026-03-29T19:38:47.999Z</time></trkpt><trkpt lat="-27.395076253574693" lon="-52.300298011560635"><ele>415.0</ele><time>2026-03-29T19:38:48.999Z</time></trkpt><trkpt lat="-27.39497501045902" lon="-52.30029949242066"><ele>414.66666666666663</ele><time>2026-03-29T19:38:49.999Z</time></trkpt><trkpt lat="-27.394885969662397" lon="-52.300300753513255"><ele>414.3333333333333</ele><time>2026-03-29T19:38:50.999Z</time></trkpt><trkpt lat="-27.394818163190674" lon="-52.300298147635615"><ele>414.0</ele><time>2026-03-29T19:38:51.999Z</time></trkpt><trkpt lat="-27.394706749041738" lon="-52.30028862608449"><ele>413.2</ele><time>2026-03-29T19:38:53.999Z</time></trkpt><trkpt lat="-27.394618826664157" lon="-52.300308799476724"><ele>412.4</ele><time>2026-03-29T19:38:55.999Z</time></trkpt><trkpt lat="-27.39457517231832" lon="-52.30013784793945"><ele>411.6</ele><time>2026-03-29T19:38:58.999Z</time></trkpt><trkpt lat="-27.394522814365033" lon="-52.30018946273561"><ele>410.8</ele><time>2026-03-29T19:39:00.999Z</time></trkpt><trkpt lat="-27.39444533918936" lon="-52.30018156710053"><ele>410.0</ele><time>2026-03-29T19:39:02.999Z</time></trkpt><trkpt lat="-27.39451537253717" lon="-52.30018980772112"><ele>410.0</ele><time>2026-03-29T19:40:54.999Z</time></trkpt><trkpt lat="-27.394591399046327" lon="-52.300195794161816"><ele>410.0</ele><time>2026-03-29T19:41:00.999Z</time></trkpt><trkpt lat="-27.394591399046327" lon="-52.300195794161816"><ele>410.0</ele><time>2026-03-29T19:41:00.999Z</time></trkpt><trkpt lat="-27.394591399046327" lon="-52.300195794161816"><ele>410.0</ele><time>2026-03-29T19:41:00.999Z</time></trkpt><trkpt lat="-27.394591399046327" lon="-52.300195794161816"><ele>410.0</ele><time>2026-03-29T19:41:00.999Z</time></trkpt><trkpt lat="-27.394591399046327" lon="-52.300195794161816"><ele>410.0</ele><time>2026-03-29T19:41:00.999Z</time></trkpt><trkpt lat="-27.394591399046327" lon="-52.300195794161816"><ele>410.0</ele><time>2026-03-29T19:41:00.999Z</time></trkpt><trkpt lat="-27.394591399046327" lon="-52.300195794161816"><ele>410.0</ele><time>2026-03-29T19:41:00.999Z</time></trkpt><trkpt lat="-27.394591399046327" lon="-52.300195794161816"><ele>410.0</ele><time>2026-03-29T19:41:00.999Z</time></trkpt><trkpt lat="-27.394591399046327" lon="-52.300195794161816"><ele>410.0</ele><time>2026-03-29T19:41:00.999Z</time></trkpt><trkpt lat="-27.394591399046327" lon="-52.300195794161816"><ele>410.0</ele><time>2026-03-29T19:41:00.999Z</time></trkpt></trkseg></trk></gpx>